Wetterdaten: Mittwoch, 09.08.2023
Datum Zeit Temp. Aussen Temp. o. S. Temp +5cm Feuchte Auss Luftdruck Regen Sonnenschein Regendauer Solar Windben Empfang
09.08.2023 00:00 15,0 C 14,4 C 10,6 C 97 % 1013,0 hPa 0,0 l/m 0 min 0 min 0 W/m 12,9 km/h (3 Bft) 97,83 %
09.08.2023 00:02 14,9 C 14,4 C 10,6 C 97 % 1013,0 hPa 0,0 l/m 0 min 0 min 0 W/m 16,1 km/h (3 Bft) 100,00 %
09.08.2023 00:04 14,9 C 14,4 C 10,6 C 97 % 1012,9 hPa 0,0 l/m 0 min 0 min 0 W/m 6,4 km/h (2 Bft) 100,00 %
09.08.2023 00:08 15,0 C 14,4 C 10,6 C 97 % 1012,9 hPa 0,0 l/m 0 min 0 min 0 W/m 12,9 km/h (3 Bft) 100,00 %
09.08.2023 00:10 15,0 C 14,4 C 10,6 C 97 % 1012,9 hPa 0,0 l/m 0 min 0 min 0 W/m 16,1 km/h (3 Bft) 97,87 %
09.08.2023 00:12 15,0 C 14,4 C 10,6 C 97 % 1012,9 hPa 0,0 l/m 0 min 0 min 0 W/m 12,9 km/h (3 Bft) 97,83 %
09.08.2023 00:14 15,0 C 14,4 C 10,6 C 97 % 1012,8 hPa 0,0 l/m 0 min 0 min 0 W/m 12,9 km/h (3 Bft) 97,87 %
09.08.2023 00:16 15,0 C 14,4 C 10,6 C 97 % 1012,8 hPa 0,0 l/m 0 min 0 min 0 W/m 12,9 km/h (3 Bft) 100,00 %
09.08.2023 00:18 15,0 C 14,4 C 10,6 C 97 % 1012,8 hPa 0,0 l/m 0 min 0 min 0 W/m 12,9 km/h (3 Bft) 97,87 %
09.08.2023 00:20 15,0 C 14,4 C 10,6 C 97 % 1012,6 hPa 0,0 l/m 0 min 0 min 0 W/m 19,3 km/h (3 Bft) 97,87 %
09.08.2023 00:22 15,0 C 14,4 C 10,6 C 97 % 1012,7 hPa 0,0 l/m 0 min 0 min 0 W/m 12,9 km/h (3 Bft) 97,92 %
09.08.2023 00:24 15,0 C 14,4 C 10,6 C 97 % 1012,7 hPa 0,0 l/m 0 min 2 min 0 W/m 19,3 km/h (3 Bft) 97,83 %
09.08.2023 00:26 15,0 C 14,4 C 10,6 C 97 % 1012,7 hPa 0,0 l/m 0 min 0 min 0 W/m 9,7 km/h (2 Bft) 95,74 %
09.08.2023 00:28 15,0 C 14,4 C 10,6 C 97 % 1012,6 hPa 0,0 l/m 0 min 0 min 0 W/m 6,4 km/h (2 Bft) 97,87 %
09.08.2023 00:30 15,0 C 14,4 C 10,6 C 97 % 1012,6 hPa 0,0 l/m 0 min 0 min 0 W/m 12,9 km/h (3 Bft) 97,87 %
09.08.2023 00:32 15,0 C 14,4 C 10,6 C 97 % 1012,6 hPa 0,0 l/m 0 min 0 min 0 W/m 16,1 km/h (3 Bft) 97,14 %
09.08.2023 00:34 15,0 C 14,4 C 10,6 C 97 % 1012,6 hPa 0,0 l/m 0 min 0 min 0 W/m 12,9 km/h (3 Bft) 97,87 %
09.08.2023 00:36 15,0 C 14,4 C 10,6 C 97 % 1012,6 hPa 0,0 l/m 0 min 0 min 0 W/m 22,5 km/h (4 Bft) 95,74 %
09.08.2023 00:38 15,0 C 14,4 C 10,6 C 97 % 1012,5 hPa 0,0 l/m 0 min 0 min 0 W/m 12,9 km/h (3 Bft) 93,62 %
09.08.2023 00:40 15,0 C 14,4 C 10,6 C 97 % 1012,5 hPa 0,0 l/m 0 min 0 min 0 W/m 16,1 km/h (3 Bft) 96,55 %
09.08.2023 00:42 15,0 C 14,4 C 10,6 C 97 % 1012,5 hPa 0,0 l/m 0 min 2 min 0 W/m 16,1 km/h (3 Bft) 93,62 %
09.08.2023 00:44 15,0 C 14,4 C 10,6 C 98 % 1012,6 hPa 0,0 l/m 0 min 0 min 0 W/m 12,9 km/h (3 Bft) 95,74 %
09.08.2023 00:46 15,0 C 14,4 C 10,6 C 98 % 1012,5 hPa 0,0 l/m 0 min 0 min 0 W/m 12,9 km/h (3 Bft) 95,74 %
09.08.2023 00:48 15,0 C 14,4 C 10,6 C 98 % 1012,5 hPa 0,0 l/m 0 min 0 min 0 W/m 12,9 km/h (3 Bft) 94,29 %
09.08.2023 00:50 15,1 C 14,4 C 10,6 C 98 % 1012,5 hPa 0,0 l/m 0 min 0 min 0 W/m 12,9 km/h (3 Bft) 98,28 %
09.08.2023 00:52 15,1 C 14,4 C 10,6 C 98 % 1012,5 hPa 0,0 l/m 0 min 0 min 0 W/m 12,9 km/h (3 Bft) 97,87 %
09.08.2023 00:54 15,1 C 14,4 C 10,6 C 98 % 1012,5 hPa 0,0 l/m 0 min 0 min 0 W/m 12,9 km/h (3 Bft) 97,87 %
09.08.2023 00:56 15,1 C 14,4 C 10,6 C 98 % 1012,5 hPa 0,0 l/m 0 min 0 min 0 W/m 16,1 km/h (3 Bft) 97,87 %
09.08.2023 00:58 15,1 C 14,4 C 10,6 C 98 % 1012,5 hPa 0,0 l/m 0 min 0 min 0 W/m 19,3 km/h (3 Bft) 93,62 %
09.08.2023 01:00 15,1 C 14,4 C 10,6 C 98 % 1012,4 hPa 0,0 l/m 0 min 0 min 0 W/m 16,1 km/h (3 Bft) 97,87 %
09.08.2023 01:02 15,1 C 14,4 C 10,6 C 98 % 1012,5 hPa 0,0 l/m 0 min 0 min 0 W/m 12,9 km/h (3 Bft) 93,48 %
09.08.2023 01:04 15,1 C 14,4 C 10,6 C 98 % 1012,5 hPa 0,0 l/m 0 min 0 min 0 W/m 12,9 km/h (3 Bft) 95,92 %
09.08.2023 01:06 15,1 C 14,4 C 10,6 C 98 % 1012,4 hPa 0,0 l/m 0 min 0 min 0 W/m 9,7 km/h (2 Bft) 95,74 %
09.08.2023 01:08 15,1 C 14,4 C 10,6 C 98 % 1012,5 hPa 0,0 l/m 0 min 0 min 0 W/m 12,9 km/h (3 Bft) 94,29 %
09.08.2023 01:10 15,1 C 14,4 C 10,6 C 98 % 1012,4 hPa 0,0 l/m 0 min 0 min 0 W/m 9,7 km/h (2 Bft) 95,74 %
09.08.2023 01:12 15,1 C 14,4 C 10,6 C 98 % 1012,4 hPa 0,0 l/m 0 min 0 min 0 W/m 19,3 km/h (3 Bft) 95,74 %
09.08.2023 01:14 15,1 C 14,4 C 10,6 C 98 % 1012,4 hPa 0,0 l/m 0 min 0 min 0 W/m 9,7 km/h (2 Bft) 93,62 %
09.08.2023 01:16 15,1 C 14,4 C 10,6 C 98 % 1012,3 hPa 0,0 l/m 0 min 0 min 0 W/m 9,7 km/h (2 Bft) 93,62 %
09.08.2023 01:18 15,1 C 14,4 C 10,6 C 98 % 1012,3 hPa 0,0 l/m 0 min 0 min 0 W/m 16,1 km/h (3 Bft) 93,62 %
09.08.2023 01:20 15,1 C 14,4 C 10,6 C 98 % 1012,3 hPa 0,0 l/m 0 min 0 min 0 W/m 12,9 km/h (3 Bft) 95,65 %
09.08.2023 01:22 15,1 C 14,4 C 10,6 C 97 % 1012,2 hPa 0,0 l/m 0 min 2 min 0 W/m 9,7 km/h (2 Bft) 97,87 %
09.08.2023 01:24 15,1 C 14,4 C 10,6 C 98 % 1012,3 hPa 0,0 l/m 0 min 2 min 0 W/m 16,1 km/h (3 Bft) 97,87 %
09.08.2023 01:26 15,2 C 14,4 C 10,6 C 98 % 1012,3 hPa 0,0 l/m 0 min 0 min 0 W/m 12,9 km/h (3 Bft) 95,74 %
09.08.2023 01:28 15,2 C 14,4 C 10,6 C 98 % 1012,3 hPa 0,0 l/m 0 min 2 min 0 W/m 16,1 km/h (3 Bft) 97,87 %
09.08.2023 01:30 15,2 C 14,4 C 10,6 C 98 % 1012,3 hPa 0,2 l/m 0 min 2 min 0 W/m 16,1 km/h (3 Bft) 97,87 %
09.08.2023 01:32 15,2 C 14,4 C 10,6 C 98 % 1012,2 hPa 0,0 l/m 0 min 2 min 0 W/m 16,1 km/h (3 Bft) 100,00 %
09.08.2023 01:34 15,2 C 14,4 C 10,6 C 98 % 1012,3 hPa 0,0 l/m 0 min 2 min 0 W/m 16,1 km/h (3 Bft) 95,74 %
09.08.2023 01:36 15,2 C 14,4 C 10,6 C 98 % 1012,2 hPa 0,0 l/m 0 min 2 min 0 W/m 12,9 km/h (3 Bft) 95,74 %
09.08.2023 01:38 15,2 C 14,4 C 10,6 C 98 % 1012,2 hPa 0,2 l/m 0 min 2 min 0 W/m 22,5 km/h (4 Bft) 97,87 %
09.08.2023 01:40 15,2 C 14,4 C 10,6 C 98 % 1012,3 hPa 0,0 l/m 0 min 2 min 0 W/m 19,3 km/h (3 Bft) 95,74 %
09.08.2023 01:42 15,2 C 14,4 C 10,6 C 98 % 1012,2 hPa 0,0 l/m 0 min 2 min 0 W/m 16,1 km/h (3 Bft) 93,62 %
09.08.2023 01:44 15,2 C 14,4 C 10,6 C 98 % 1012,2 hPa 0,0 l/m 0 min 2 min 0 W/m 19,3 km/h (3 Bft) 97,87 %
09.08.2023 01:46 15,2 C 14,4 C 10,6 C 98 % 1012,1 hPa 0,0 l/m 0 min 2 min 0 W/m 16,1 km/h (3 Bft) 100,00 %
09.08.2023 01:48 15,2 C 14,4 C 10,6 C 98 % 1012,3 hPa 0,0 l/m 0 min 2 min 0 W/m 16,1 km/h (3 Bft) 100,00 %
09.08.2023 01:50 15,2 C 14,4 C 10,6 C 98 % 1012,1 hPa 0,0 l/m 0 min 2 min 0 W/m 6,4 km/h (2 Bft) 97,87 %
09.08.2023 01:52 15,2 C 14,4 C 10,6 C 98 % 1012,3 hPa 0,0 l/m 0 min 2 min 0 W/m 19,3 km/h (3 Bft) 100,00 %
09.08.2023 01:54 15,2 C 14,4 C 10,6 C 98 % 1012,2 hPa 0,0 l/m 0 min 2 min 0 W/m 12,9 km/h (3 Bft) 100,00 %
09.08.2023 01:56 15,2 C 14,4 C 10,6 C 98 % 1012,1 hPa 0,0 l/m 0 min 0 min 0 W/m 16,1 km/h (3 Bft) 100,00 %
09.08.2023 01:58 15,2 C 14,4 C 10,6 C 98 % 1012,1 hPa 0,0 l/m 0 min 2 min 0 W/m 12,9 km/h (3 Bft) 100,00 %
09.08.2023 02:00 15,2 C 14,4 C 10,6 C 98 % 1012,1 hPa 0,2 l/m 0 min 2 min 0 W/m 9,7 km/h (2 Bft) 100,00 %
09.08.2023 02:02 15,2 C 14,4 C 10,6 C 98 % 1012,2 hPa 0,0 l/m 0 min 2 min 0 W/m 29,0 km/h (5 Bft) 97,87 %
09.08.2023 02:04 15,2 C 14,4 C 10,6 C 98 % 1012,2 hPa 0,2 l/m 0 min 2 min 0 W/m 16,1 km/h (3 Bft) 95,92 %
09.08.2023 02:06 15,2 C 14,4 C 10,6 C 98 % 1012,1 hPa 0,0 l/m 0 min 2 min 0 W/m 12,9 km/h (3 Bft) 98,31 %
09.08.2023 02:08 15,2 C 14,4 C 10,6 C 98 % 1012,1 hPa 0,0 l/m 0 min 2 min 0 W/m 16,1 km/h (3 Bft) 97,14 %
09.08.2023 02:10 15,2 C 14,4 C 10,6 C 98 % 1012,2 hPa 0,0 l/m 0 min 2 min 0 W/m 12,9 km/h (3 Bft) 97,83 %
09.08.2023 02:12 15,2 C 14,4 C 10,6 C 98 % 1012,2 hPa 0,2 l/m 0 min 0 min 0 W/m 12,9 km/h (3 Bft) 97,87 %
09.08.2023 02:14 15,2 C 14,4 C 10,6 C 98 % 1012,2 hPa 0,0 l/m 0 min 0 min 0 W/m 6,4 km/h (2 Bft) 97,87 %
09.08.2023 02:16 15,2 C 14,4 C 11,1 C 98 % 1012,4 hPa 0,0 l/m 0 min 0 min 0 W/m 9,7 km/h (2 Bft) 93,62 %
09.08.2023 02:18 15,2 C 14,4 C 10,6 C 98 % 1012,6 hPa 0,0 l/m 0 min 0 min 0 W/m 25,7 km/h (4 Bft) 97,87 %
09.08.2023 02:20 15,1 C 13,9 C 10,6 C 98 % 1012,6 hPa 0,4 l/m 0 min 2 min 0 W/m 16,1 km/h (3 Bft) 97,87 %
09.08.2023 02:22 15,0 C 13,9 C 10,0 C 98 % 1012,6 hPa 0,4 l/m 0 min 2 min 0 W/m 9,7 km/h (2 Bft) 97,87 %
09.08.2023 02:24 14,9 C 13,3 C 10,0 C 98 % 1012,6 hPa 0,2 l/m 0 min 2 min 0 W/m 9,7 km/h (2 Bft) 97,83 %
09.08.2023 02:26 14,8 C 13,3 C 10,0 C 98 % 1012,7 hPa 0,0 l/m 0 min 0 min 0 W/m 16,1 km/h (3 Bft) 97,87 %
09.08.2023 02:28 14,7 C 13,3 C 10,0 C 98 % 1012,7 hPa 0,0 l/m 0 min 0 min 0 W/m 19,3 km/h (3 Bft) 97,87 %
09.08.2023 02:30 14,6 C 13,3 C 10,0 C 98 % 1012,7 hPa 0,0 l/m 0 min 0 min 0 W/m 25,7 km/h (4 Bft) 97,87 %
09.08.2023 02:32 14,6 C 13,3 C 10,0 C 98 % 1012,7 hPa 0,0 l/m 0 min 0 min 0 W/m 9,7 km/h (2 Bft) 97,87 %
09.08.2023 02:34 14,5 C 13,3 C 10,0 C 97 % 1012,7 hPa 0,0 l/m 0 min 0 min 0 W/m 6,4 km/h (2 Bft) 97,87 %
09.08.2023 02:36 14,4 C 13,3 C 10,0 C 98 % 1012,7 hPa 0,0 l/m 0 min 0 min 0 W/m 6,4 km/h (2 Bft) 95,74 %
09.08.2023 02:38 14,4 C 13,3 C 10,0 C 98 % 1012,7 hPa 0,0 l/m 0 min 0 min 0 W/m 9,7 km/h (2 Bft) 97,83 %
09.08.2023 02:40 14,3 C 13,3 C 10,0 C 98 % 1012,8 hPa 0,2 l/m 0 min 0 min 0 W/m 9,7 km/h (2 Bft) 100,00 %
09.08.2023 02:42 14,3 C 13,3 C 10,0 C 98 % 1012,8 hPa 0,0 l/m 0 min 0 min 0 W/m 3,2 km/h (1 Bft) 97,87 %
09.08.2023 02:44 14,3 C 13,3 C 10,0 C 98 % 1012,8 hPa 0,0 l/m 0 min 2 min 0 W/m 6,4 km/h (2 Bft) 100,00 %
09.08.2023 02:46 14,3 C 13,3 C 10,0 C 98 % 1012,8 hPa 0,0 l/m 0 min 0 min 0 W/m 6,4 km/h (2 Bft) 97,87 %
09.08.2023 02:48 14,3 C 13,3 C 10,0 C 98 % 1012,7 hPa 0,0 l/m 0 min 2 min 0 W/m 3,2 km/h (1 Bft) 97,87 %
09.08.2023 02:50 14,3 C 13,3 C 10,0 C 98 % 1012,8 hPa 0,0 l/m 0 min 0 min 0 W/m 6,4 km/h (2 Bft) 100,00 %
09.08.2023 02:52 14,3 C 13,3 C 10,0 C 98 % 1012,7 hPa 0,0 l/m 0 min 0 min 0 W/m 9,7 km/h (2 Bft) 100,00 %
09.08.2023 02:54 14,3 C 13,3 C 10,0 C 98 % 1012,8 hPa 0,0 l/m 0 min 0 min 0 W/m 6,4 km/h (2 Bft) 100,00 %
09.08.2023 02:56 14,3 C 13,3 C 10,0 C 98 % 1012,8 hPa 0,0 l/m 0 min 0 min 0 W/m 3,2 km/h (1 Bft) 87,23 %
09.08.2023 02:58 14,3 C 13,3 C 10,0 C 98 % 1012,9 hPa 0,0 l/m 0 min 0 min 0 W/m 6,4 km/h (2 Bft) 66,67 %
09.08.2023 03:00 14,3 C 13,3 C 10,0 C 98 % 1012,9 hPa 0,0 l/m 0 min 0 min 0 W/m 9,7 km/h (2 Bft) 100,00 %
09.08.2023 03:02 14,3 C 13,3 C 10,0 C 98 % 1012,9 hPa 0,0 l/m 0 min 0 min 0 W/m 6,4 km/h (2 Bft) 98,21 %
09.08.2023 03:04 14,3 C 12,8 C 9,4 C 98 % 1013,0 hPa 0,0 l/m 0 min 0 min 0 W/m 12,9 km/h (3 Bft) 100,00 %
09.08.2023 03:06 14,3 C 12,8 C 10,0 C 98 % 1013,1 hPa 0,0 l/m 0 min 0 min 0 W/m 6,4 km/h (2 Bft) 100,00 %
09.08.2023 03:08 14,3 C 12,8 C 10,0 C 98 % 1013,1 hPa 0,0 l/m 0 min 0 min 0 W/m 9,7 km/h (2 Bft) 100,00 %
09.08.2023 03:10 14,3 C 12,8 C 9,4 C 98 % 1013,1 hPa 0,2 l/m 0 min 2 min 0 W/m 6,4 km/h (2 Bft) 100,00 %
09.08.2023 03:12 14,2 C 12,8 C 9,4 C 98 % 1013,1 hPa 0,0 l/m 0 min 2 min 0 W/m 9,7 km/h (2 Bft) 97,37 %
09.08.2023 03:14 14,2 C 12,8 C 9,4 C 98 % 1013,2 hPa 0,2 l/m 0 min 2 min 0 W/m 9,7 km/h (2 Bft) 100,00 %
09.08.2023 03:16 14,2 C 12,8 C 9,4 C 98 % 1013,2 hPa 0,2 l/m 0 min 2 min 0 W/m 9,7 km/h (2 Bft) 100,00 %
09.08.2023 03:18 14,1 C 12,8 C 9,4 C 98 % 1013,1 hPa 0,0 l/m 0 min 0 min 0 W/m 12,9 km/h (3 Bft) 100,00 %
09.08.2023 03:20 14,1 C 12,8 C 9,4 C 98 % 1013,0 hPa 0,0 l/m 0 min 2 min 0 W/m 9,7 km/h (2 Bft) 97,37 %
09.08.2023 03:22 14,1 C 12,8 C 9,4 C 98 % 1013,0 hPa 0,0 l/m 0 min 0 min 0 W/m 12,9 km/h (3 Bft) 97,92 %
09.08.2023 03:24 14,1 C 12,8 C 9,4 C 98 % 1013,0 hPa 0,0 l/m 0 min 0 min 0 W/m 9,7 km/h (2 Bft) 97,87 %
09.08.2023 03:26 14,1 C 12,8 C 9,4 C 98 % 1013,0 hPa 0,0 l/m 0 min 0 min 0 W/m 3,2 km/h (1 Bft) 97,87 %
09.08.2023 03:28 14,1 C 12,8 C 9,4 C 98 % 1013,0 hPa 0,0 l/m 0 min 0 min 0 W/m 0,0 km/h (0 Bft) 97,87 %
09.08.2023 03:30 14,1 C 12,8 C 9,4 C 98 % 1013,0 hPa 0,2 l/m 0 min 0 min 0 W/m 3,2 km/h (1 Bft) 97,83 %
09.08.2023 03:32 14,1 C 13,3 C 9,4 C 98 % 1013,0 hPa 0,0 l/m 0 min 0 min 0 W/m 0,0 km/h (0 Bft) 97,87 %
09.08.2023 03:34 14,1 C 12,8 C 10,0 C 98 % 1013,0 hPa 0,0 l/m 0 min 2 min 0 W/m 0,0 km/h (0 Bft) 97,87 %
09.08.2023 03:36 14,1 C 13,3 C 10,0 C 98 % 1013,1 hPa 0,0 l/m 0 min 2 min 0 W/m 0,0 km/h (0 Bft) 97,87 %
09.08.2023 03:38 14,1 C 12,8 C 9,4 C 98 % 1013,1 hPa 0,0 l/m 0 min 2 min 0 W/m 0,0 km/h (0 Bft) 97,87 %
09.08.2023 03:40 14,1 C 12,8 C 10,0 C 98 % 1013,2 hPa 0,0 l/m 0 min 2 min 0 W/m 0,0 km/h (0 Bft) 95,74 %
09.08.2023 03:42 14,1 C 13,3 C 10,0 C 98 % 1013,2 hPa 0,0 l/m 0 min 2 min 0 W/m 0,0 km/h (0 Bft) 97,87 %
09.08.2023 03:44 14,1 C 12,8 C 10,0 C 98 % 1013,1 hPa 0,2 l/m 0 min 0 min 0 W/m 0,0 km/h (0 Bft) 97,83 %
09.08.2023 03:46 14,2 C 13,3 C 10,0 C 98 % 1013,1 hPa 0,0 l/m 0 min 0 min 0 W/m 0,0 km/h (0 Bft) 97,87 %
09.08.2023 03:48 14,2 C 13,3 C 10,0 C 98 % 1013,0 hPa 0,0 l/m 0 min 0 min 0 W/m 0,0 km/h (0 Bft) 95,74 %
09.08.2023 03:50 14,2 C 13,3 C 10,0 C 98 % 1013,0 hPa 0,0 l/m 0 min 0 min 0 W/m 0,0 km/h (0 Bft) 95,74 %
09.08.2023 03:52 14,2 C 13,3 C 10,0 C 98 % 1013,0 hPa 0,0 l/m 0 min 0 min 0 W/m 0,0 km/h (0 Bft) 97,87 %
09.08.2023 03:54 14,2 C 13,3 C 10,0 C 98 % 1013,1 hPa 0,0 l/m 0 min 0 min 0 W/m 3,2 km/h (1 Bft) 97,87 %
09.08.2023 03:56 14,2 C 13,3 C 10,0 C 98 % 1013,2 hPa 0,0 l/m 0 min 0 min 0 W/m 0,0 km/h (0 Bft) 95,65 %
09.08.2023 03:58 14,2 C 12,8 C 10,0 C 98 % 1013,1 hPa 0,0 l/m 0 min 2 min 0 W/m 0,0 km/h (0 Bft) 93,62 %
09.08.2023 04:00 14,2 C 12,8 C 10,0 C 98 % 1013,1 hPa 0,0 l/m 0 min 2 min 0 W/m 0,0 km/h (0 Bft) 91,49 %
09.08.2023 04:05 14,2 C 12,8 C 10,0 C 98 % 1013,1 hPa 0,0 l/m 0 min 5 min 0 W/m 0,0 km/h (0 Bft) 100,00 %
09.08.2023 04:06 14,2 C 12,8 C 10,0 C 98 % 1013,1 hPa 0,0 l/m 0 min 1 min 0 W/m 0,0 km/h (0 Bft) 95,83 %
09.08.2023 04:08 14,2 C 12,8 C 10,0 C 98 % 1013,1 hPa 0,0 l/m 0 min 2 min 0 W/m 0,0 km/h (0 Bft) 100,00 %
09.08.2023 04:10 14,2 C 13,3 C 10,0 C 98 % 1013,1 hPa 0,0 l/m 0 min 2 min 0 W/m 0,0 km/h (0 Bft) 100,00 %
09.08.2023 04:12 14,2 C 13,3 C 10,0 C 98 % 1013,1 hPa 0,0 l/m 0 min 0 min 0 W/m 0,0 km/h (0 Bft) 95,74 %
09.08.2023 04:14 14,2 C 13,3 C 10,0 C 98 % 1013,1 hPa 0,0 l/m 0 min 0 min 0 W/m 0,0 km/h (0 Bft) 95,74 %
09.08.2023 04:16 14,2 C 13,3 C 10,0 C 98 % 1013,2 hPa 0,0 l/m 0 min 0 min 0 W/m 0,0 km/h (0 Bft) 95,74 %
09.08.2023 04:18 14,3 C 13,3 C 10,0 C 98 % 1013,2 hPa 0,0 l/m 0 min 0 min 0 W/m 0,0 km/h (0 Bft) 95,74 %
09.08.2023 04:20 14,3 C 13,3 C 10,0 C 99 % 1013,3 hPa 0,0 l/m 0 min 0 min 0 W/m 0,0 km/h (0 Bft) 93,62 %
09.08.2023 04:22 14,3 C 13,3 C 10,0 C 99 % 1013,3 hPa 0,0 l/m 0 min 0 min 0 W/m 0,0 km/h (0 Bft) 95,65 %
09.08.2023 04:24 14,3 C 13,3 C 10,0 C 98 % 1013,3 hPa 0,0 l/m 0 min 0 min 0 W/m 0,0 km/h (0 Bft) 93,62 %
09.08.2023 04:26 14,3 C 13,3 C 10,0 C 99 % 1013,3 hPa 0,0 l/m 0 min 0 min 0 W/m 0,0 km/h (0 Bft) 93,62 %
09.08.2023 04:28 14,3 C 13,3 C 10,0 C 98 % 1013,3 hPa 0,0 l/m 0 min 0 min 0 W/m 0,0 km/h (0 Bft) 95,74 %
09.08.2023 04:30 14,3 C 13,3 C 10,0 C 98 % 1013,3 hPa 0,0 l/m 0 min 0 min 0 W/m 0,0 km/h (0 Bft) 97,87 %
09.08.2023 04:32 14,3 C 13,3 C 10,0 C 98 % 1013,5 hPa 0,0 l/m 0 min 0 min 0 W/m 0,0 km/h (0 Bft) 97,87 %
09.08.2023 04:34 14,2 C 13,3 C 10,0 C 98 % 1013,6 hPa 0,0 l/m 0 min 2 min 0 W/m 0,0 km/h (0 Bft) 97,87 %
09.08.2023 04:36 14,2 C 13,3 C 10,0 C 98 % 1013,6 hPa 0,0 l/m 0 min 2 min 0 W/m 0,0 km/h (0 Bft) 97,83 %
09.08.2023 04:38 14,2 C 12,8 C 10,0 C 98 % 1013,6 hPa 0,0 l/m 0 min 2 min 0 W/m 0,0 km/h (0 Bft) 97,87 %
09.08.2023 04:40 14,2 C 13,3 C 10,0 C 98 % 1013,6 hPa 0,2 l/m 0 min 2 min 0 W/m 0,0 km/h (0 Bft) 97,87 %
09.08.2023 04:42 14,2 C 13,3 C 10,0 C 98 % 1013,6 hPa 0,0 l/m 0 min 2 min 0 W/m 0,0 km/h (0 Bft) 97,87 %
09.08.2023 04:44 14,2 C 12,8 C 10,0 C 98 % 1013,6 hPa 0,0 l/m 0 min 2 min 0 W/m 0,0 km/h (0 Bft) 97,87 %
09.08.2023 04:46 14,1 C 12,8 C 10,0 C 98 % 1013,5 hPa 0,0 l/m 0 min 0 min 0 W/m 0,0 km/h (0 Bft) 100,00 %
09.08.2023 04:48 14,1 C 12,8 C 9,4 C 98 % 1013,5 hPa 0,0 l/m 0 min 2 min 0 W/m 0,0 km/h (0 Bft) 97,87 %
09.08.2023 04:50 14,1 C 12,8 C 9,4 C 98 % 1013,5 hPa 0,0 l/m 0 min 2 min 0 W/m 0,0 km/h (0 Bft) 100,00 %
09.08.2023 04:52 14,1 C 12,8 C 9,4 C 98 % 1013,5 hPa 0,0 l/m 0 min 2 min 0 W/m 0,0 km/h (0 Bft) 97,83 %
09.08.2023 04:54 14,1 C 12,8 C 9,4 C 98 % 1013,5 hPa 0,0 l/m 0 min 2 min 0 W/m 0,0 km/h (0 Bft) 97,87 %
09.08.2023 04:56 14,1 C 12,8 C 9,4 C 99 % 1013,5 hPa 0,0 l/m 0 min 0 min 0 W/m 0,0 km/h (0 Bft) 100,00 %
09.08.2023 04:58 14,1 C 12,8 C 10,0 C 99 % 1013,5 hPa 0,0 l/m 0 min 0 min 0 W/m 0,0 km/h (0 Bft) 97,87 %
09.08.2023 05:00 14,1 C 12,8 C 9,4 C 99 % 1013,6 hPa 0,0 l/m 0 min 2 min 0 W/m 0,0 km/h (0 Bft) 100,00 %
09.08.2023 05:02 14,1 C 12,8 C 9,4 C 99 % 1013,6 hPa 0,0 l/m 0 min 2 min 0 W/m 0,0 km/h (0 Bft) 100,00 %
09.08.2023 05:04 14,0 C 12,8 C 10,0 C 99 % 1013,6 hPa 0,0 l/m 0 min 0 min 0 W/m 0,0 km/h (0 Bft) 100,00 %
09.08.2023 05:06 14,0 C 12,8 C 10,0 C 99 % 1013,6 hPa 0,0 l/m 0 min 0 min 0 W/m 0,0 km/h (0 Bft) 100,00 %
09.08.2023 05:08 14,0 C 12,8 C 10,0 C 99 % 1013,6 hPa 0,0 l/m 0 min 0 min 0 W/m 0,0 km/h (0 Bft) 100,00 %
09.08.2023 05:10 14,0 C 12,8 C 10,0 C 99 % 1013,6 hPa 0,0 l/m 0 min 0 min 0 W/m 0,0 km/h (0 Bft) 100,00 %
09.08.2023 05:12 14,0 C 12,8 C 10,0 C 99 % 1013,6 hPa 0,0 l/m 0 min 0 min 0 W/m 0,0 km/h (0 Bft) 100,00 %
09.08.2023 05:14 14,0 C 12,8 C 10,0 C 99 % 1013,6 hPa 0,0 l/m 0 min 0 min 0 W/m 0,0 km/h (0 Bft) 100,00 %
09.08.2023 05:16 14,0 C 12,8 C 10,0 C 99 % 1013,6 hPa 0,0 l/m 0 min 0 min 0 W/m 0,0 km/h (0 Bft) 100,00 %
09.08.2023 05:18 14,0 C 12,8 C 10,0 C 99 % 1013,6 hPa 0,0 l/m 0 min 0 min 0 W/m 0,0 km/h (0 Bft) 100,00 %
09.08.2023 05:20 14,0 C 12,8 C 10,0 C 99 % 1013,7 hPa 0,0 l/m 0 min 0 min 0 W/m 0,0 km/h (0 Bft) 100,00 %
09.08.2023 05:22 14,0 C 12,8 C 10,0 C 99 % 1013,6 hPa 0,0 l/m 0 min 0 min 0 W/m 0,0 km/h (0 Bft) 100,00 %
09.08.2023 05:24 14,0 C 12,8 C 9,4 C 99 % 1013,7 hPa 0,0 l/m 0 min 0 min 0 W/m 0,0 km/h (0 Bft) 100,00 %
09.08.2023 05:26 14,0 C 12,8 C 9,4 C 99 % 1013,7 hPa 0,0 l/m 0 min 0 min 0 W/m 0,0 km/h (0 Bft) 100,00 %
09.08.2023 05:28 14,0 C 12,8 C 9,4 C 99 % 1013,8 hPa 0,0 l/m 0 min 0 min 0 W/m 0,0 km/h (0 Bft) 100,00 %
09.08.2023 05:30 14,0 C 12,8 C 9,4 C 99 % 1013,8 hPa 0,0 l/m 0 min 0 min 0 W/m 0,0 km/h (0 Bft) 95,74 %
09.08.2023 05:32 13,9 C 12,8 C 9,4 C 99 % 1013,8 hPa 0,0 l/m 0 min 0 min 0 W/m 0,0 km/h (0 Bft) 100,00 %
09.08.2023 05:34 13,9 C 12,8 C 9,4 C 99 % 1013,9 hPa 0,0 l/m 0 min 0 min 0 W/m 0,0 km/h (0 Bft) 100,00 %
09.08.2023 05:36 13,9 C 12,8 C 9,4 C 99 % 1013,9 hPa 0,0 l/m 0 min 0 min 0 W/m 0,0 km/h (0 Bft) 97,87 %
09.08.2023 05:38 13,9 C 12,8 C 9,4 C 98 % 1013,9 hPa 0,0 l/m 0 min 0 min 0 W/m 0,0 km/h (0 Bft) 100,00 %
09.08.2023 05:40 13,9 C 12,8 C 9,4 C 98 % 1013,9 hPa 0,0 l/m 0 min 0 min 0 W/m 0,0 km/h (0 Bft) 97,87 %
09.08.2023 05:42 13,9 C 12,8 C 9,4 C 98 % 1013,9 hPa 0,0 l/m 0 min 0 min 0 W/m 0,0 km/h (0 Bft) 100,00 %
09.08.2023 05:44 13,8 C 12,8 C 9,4 C 98 % 1013,9 hPa 0,0 l/m 0 min 0 min 0 W/m 0,0 km/h (0 Bft) 100,00 %
09.08.2023 05:46 13,8 C 12,8 C 9,4 C 98 % 1013,9 hPa 0,0 l/m 0 min 0 min 0 W/m 0,0 km/h (0 Bft) 100,00 %
09.08.2023 05:48 13,8 C 12,8 C 9,4 C 98 % 1013,9 hPa 0,0 l/m 0 min 0 min 0 W/m 0,0 km/h (0 Bft) 95,74 %
09.08.2023 05:50 13,8 C 12,8 C 9,4 C 99 % 1013,9 hPa 0,0 l/m 0 min 0 min 0 W/m 0,0 km/h (0 Bft) 95,74 %
09.08.2023 05:52 13,8 C 12,8 C 9,4 C 99 % 1013,9 hPa 0,0 l/m 0 min 0 min 0 W/m 0,0 km/h (0 Bft) 78,72 %
09.08.2023 05:54 13,8 C 12,8 C 9,4 C 99 % 1014,0 hPa 0,0 l/m 0 min 0 min 0 W/m 0,0 km/h (0 Bft) 74,47 %
09.08.2023 05:56 13,8 C 12,8 C 9,4 C 99 % 1014,0 hPa 0,0 l/m 0 min 0 min 0 W/m 0,0 km/h (0 Bft) 97,87 %
09.08.2023 05:58 13,8 C 12,8 C 9,4 C 99 % 1014,1 hPa 0,0 l/m 0 min 0 min 0 W/m 0,0 km/h (0 Bft) 95,65 %
09.08.2023 06:00 13,8 C 12,8 C 9,4 C 99 % 1014,1 hPa 0,0 l/m 0 min 0 min 0 W/m 0,0 km/h (0 Bft) 97,87 %
09.08.2023 06:02 13,8 C 12,8 C 9,4 C 99 % 1014,2 hPa 0,0 l/m 0 min 0 min 0 W/m 0,0 km/h (0 Bft) 93,62 %
09.08.2023 06:04 13,7 C 12,8 C 9,4 C 99 % 1014,2 hPa 0,0 l/m 0 min 0 min 0 W/m 0,0 km/h (0 Bft) 93,02 %
09.08.2023 06:08 13,7 C 12,8 C 9,4 C 99 % 1014,3 hPa 0,0 l/m 0 min 0 min 0 W/m 0,0 km/h (0 Bft) 95,05 %
09.08.2023 06:10 13,8 C 12,8 C 9,4 C 99 % 1014,3 hPa 0,0 l/m 0 min 0 min 0 W/m 0,0 km/h (0 Bft) 91,30 %
09.08.2023 06:12 13,7 C 12,8 C 9,4 C 99 % 1014,3 hPa 0,0 l/m 0 min 0 min 0 W/m 0,0 km/h (0 Bft) 95,74 %
09.08.2023 06:14 13,7 C 12,8 C 9,4 C 99 % 1014,3 hPa 0,0 l/m 0 min 0 min 0 W/m 0,0 km/h (0 Bft) 93,62 %
09.08.2023 06:16 13,7 C 12,8 C 9,4 C 99 % 1014,4 hPa 0,0 l/m 0 min 0 min 0 W/m 0,0 km/h (0 Bft) 95,74 %
09.08.2023 06:18 13,7 C 12,8 C 9,4 C 99 % 1014,4 hPa 0,0 l/m 0 min 0 min 0 W/m 0,0 km/h (0 Bft) 97,87 %
09.08.2023 06:20 13,7 C 12,8 C 9,4 C 99 % 1014,4 hPa 0,0 l/m 0 min 0 min 0 W/m 0,0 km/h (0 Bft) 95,74 %
09.08.2023 06:22 13,7 C 12,8 C 9,4 C 99 % 1014,4 hPa 0,0 l/m 0 min 0 min 5 W/m 0,0 km/h (0 Bft) 95,65 %
09.08.2023 06:24 13,7 C 12,8 C 9,4 C 99 % 1014,4 hPa 0,0 l/m 0 min 0 min 5 W/m 0,0 km/h (0 Bft) 97,87 %
09.08.2023 06:26 13,7 C 12,8 C 9,4 C 99 % 1014,5 hPa 0,0 l/m 0 min 0 min 5 W/m 0,0 km/h (0 Bft) 95,74 %
09.08.2023 06:28 13,7 C 12,8 C 9,4 C 99 % 1014,5 hPa 0,0 l/m 0 min 0 min 5 W/m 0,0 km/h (0 Bft) 97,87 %
09.08.2023 06:30 13,7 C 12,8 C 9,4 C 99 % 1014,5 hPa 0,0 l/m 0 min 0 min 6 W/m 0,0 km/h (0 Bft) 97,87 %
09.08.2023 06:32 13,7 C 12,8 C 9,4 C 99 % 1014,6 hPa 0,0 l/m 0 min 0 min 7 W/m 0,0 km/h (0 Bft) 97,87 %
09.08.2023 06:34 13,7 C 12,8 C 9,4 C 99 % 1014,6 hPa 0,0 l/m 0 min 0 min 7 W/m 0,0 km/h (0 Bft) 97,87 %
09.08.2023 06:36 13,7 C 12,8 C 9,4 C 99 % 1014,6 hPa 0,0 l/m 0 min 0 min 7 W/m 0,0 km/h (0 Bft) 95,65 %
09.08.2023 06:38 13,7 C 12,8 C 9,4 C 99 % 1014,6 hPa 0,0 l/m 0 min 0 min 7 W/m 0,0 km/h (0 Bft) 97,87 %
09.08.2023 06:40 13,7 C 12,8 C 9,4 C 99 % 1014,6 hPa 0,0 l/m 0 min 0 min 9 W/m 0,0 km/h (0 Bft) 97,87 %
09.08.2023 06:42 13,7 C 12,8 C 9,4 C 99 % 1014,6 hPa 0,0 l/m 0 min 0 min 9 W/m 0,0 km/h (0 Bft) 95,74 %
09.08.2023 06:44 13,7 C 12,8 C 9,4 C 99 % 1014,6 hPa 0,0 l/m 0 min 0 min 11 W/m 0,0 km/h (0 Bft) 100,00 %
09.08.2023 06:46 13,7 C 12,8 C 9,4 C 99 % 1014,7 hPa 0,0 l/m 0 min 0 min 14 W/m 0,0 km/h (0 Bft) 97,87 %
09.08.2023 06:48 13,7 C 12,8 C 9,4 C 99 % 1014,7 hPa 0,0 l/m 0 min 0 min 18 W/m 0,0 km/h (0 Bft) 97,83 %
09.08.2023 06:50 13,7 C 12,8 C 9,4 C 99 % 1014,7 hPa 0,0 l/m 0 min 0 min 16 W/m 0,0 km/h (0 Bft) 100,00 %
09.08.2023 06:52 13,7 C 12,8 C 9,4 C 99 % 1014,7 hPa 0,0 l/m 0 min 0 min 18 W/m 0,0 km/h (0 Bft) 100,00 %
09.08.2023 06:54 13,6 C 12,8 C 9,4 C 99 % 1014,7 hPa 0,0 l/m 0 min 0 min 22 W/m 0,0 km/h (0 Bft) 100,00 %
09.08.2023 06:56 13,7 C 12,8 C 9,4 C 99 % 1014,7 hPa 0,0 l/m 0 min 0 min 27 W/m 0,0 km/h (0 Bft) 100,00 %
09.08.2023 06:58 13,6 C 12,8 C 9,4 C 99 % 1014,7 hPa 0,0 l/m 0 min 0 min 27 W/m 0,0 km/h (0 Bft) 100,00 %
09.08.2023 07:00 13,6 C 12,8 C 9,4 C 99 % 1014,7 hPa 0,0 l/m 0 min 0 min 27 W/m 0,0 km/h (0 Bft) 95,74 %
09.08.2023 07:02 13,6 C 12,8 C 9,4 C 99 % 1014,7 hPa 0,0 l/m 0 min 0 min 31 W/m 0,0 km/h (0 Bft) 95,65 %
09.08.2023 07:04 13,6 C 12,8 C 9,4 C 99 % 1014,7 hPa 0,0 l/m 0 min 0 min 31 W/m 0,0 km/h (0 Bft) 95,24 %
09.08.2023 07:06 13,7 C 12,8 C 9,4 C 99 % 1014,8 hPa 0,0 l/m 0 min 0 min 27 W/m 0,0 km/h (0 Bft) 96,61 %
09.08.2023 07:08 13,7 C 12,8 C 9,4 C 99 % 1014,8 hPa 0,0 l/m 0 min 0 min 28 W/m 0,0 km/h (0 Bft) 94,29 %
09.08.2023 07:10 13,7 C 12,8 C 9,4 C 99 % 1014,8 hPa 0,0 l/m 0 min 0 min 36 W/m 0,0 km/h (0 Bft) 97,87 %
09.08.2023 07:12 13,7 C 12,8 C 9,4 C 99 % 1014,8 hPa 0,0 l/m 0 min 0 min 36 W/m 0,0 km/h (0 Bft) 97,87 %
09.08.2023 07:14 13,7 C 12,8 C 9,4 C 99 % 1014,8 hPa 0,0 l/m 0 min 0 min 33 W/m 0,0 km/h (0 Bft) 95,65 %
09.08.2023 07:16 13,7 C 12,8 C 9,4 C 99 % 1014,8 hPa 0,0 l/m 0 min 0 min 32 W/m 0,0 km/h (0 Bft) 95,74 %
09.08.2023 07:18 13,7 C 12,8 C 9,4 C 99 % 1014,9 hPa 0,0 l/m 0 min 0 min 36 W/m 0,0 km/h (0 Bft) 96,55 %
09.08.2023 07:20 13,7 C 13,3 C 9,4 C 99 % 1014,9 hPa 0,0 l/m 0 min 0 min 43 W/m 0,0 km/h (0 Bft) 95,74 %
09.08.2023 07:22 13,7 C 12,8 C 9,4 C 99 % 1015,0 hPa 0,0 l/m 0 min 0 min 47 W/m 0,0 km/h (0 Bft) 97,87 %
09.08.2023 07:24 13,7 C 12,8 C 9,4 C 99 % 1015,0 hPa 0,0 l/m 0 min 0 min 47 W/m 0,0 km/h (0 Bft) 97,87 %
09.08.2023 07:26 13,7 C 12,8 C 9,4 C 99 % 1015,0 hPa 0,0 l/m 0 min 0 min 57 W/m 0,0 km/h (0 Bft) 97,83 %
09.08.2023 07:28 13,6 C 12,8 C 9,4 C 99 % 1015,0 hPa 0,0 l/m 0 min 0 min 71 W/m 0,0 km/h (0 Bft) 97,87 %
09.08.2023 07:30 13,7 C 13,3 C 9,4 C 99 % 1014,9 hPa 0,0 l/m 0 min 0 min 66 W/m 0,0 km/h (0 Bft) 97,87 %
09.08.2023 07:32 13,6 C 13,3 C 9,4 C 99 % 1014,9 hPa 0,0 l/m 0 min 0 min 55 W/m 0,0 km/h (0 Bft) 97,87 %
09.08.2023 07:34 13,7 C 13,3 C 10,0 C 99 % 1015,0 hPa 0,0 l/m 0 min 0 min 48 W/m 0,0 km/h (0 Bft) 95,74 %
09.08.2023 07:36 13,7 C 13,3 C 10,0 C 99 % 1015,0 hPa 0,0 l/m 0 min 0 min 48 W/m 0,0 km/h (0 Bft) 97,87 %
09.08.2023 07:38 13,7 C 13,3 C 9,4 C 99 % 1015,0 hPa 0,0 l/m 0 min 0 min 62 W/m 0,0 km/h (0 Bft) 95,74 %
09.08.2023 07:40 13,7 C 13,3 C 10,0 C 99 % 1015,1 hPa 0,0 l/m 0 min 0 min 74 W/m 0,0 km/h (0 Bft) 95,65 %
09.08.2023 07:42 13,7 C 13,3 C 10,0 C 99 % 1015,1 hPa 0,0 l/m 0 min 0 min 71 W/m 0,0 km/h (0 Bft) 95,74 %
09.08.2023 07:44 13,7 C 13,3 C 10,0 C 99 % 1015,2 hPa 0,0 l/m 0 min 0 min 66 W/m 0,0 km/h (0 Bft) 93,62 %
09.08.2023 07:46 13,7 C 13,3 C 10,0 C 99 % 1015,2 hPa 0,0 l/m 0 min 0 min 74 W/m 0,0 km/h (0 Bft) 97,87 %
09.08.2023 07:48 13,7 C 13,3 C 10,0 C 99 % 1015,2 hPa 0,0 l/m 0 min 0 min 74 W/m 0,0 km/h (0 Bft) 97,87 %
09.08.2023 07:50 13,7 C 13,3 C 9,4 C 99 % 1015,2 hPa 0,0 l/m 0 min 0 min 64 W/m 0,0 km/h (0 Bft) 97,87 %
09.08.2023 07:52 13,7 C 13,3 C 10,0 C 99 % 1015,2 hPa 0,0 l/m 0 min 0 min 66 W/m 0,0 km/h (0 Bft) 97,87 %
09.08.2023 07:54 13,7 C 13,3 C 9,4 C 99 % 1015,2 hPa 0,0 l/m 0 min 0 min 79 W/m 0,0 km/h (0 Bft) 95,65 %
09.08.2023 07:56 13,7 C 13,3 C 9,4 C 99 % 1015,2 hPa 0,0 l/m 0 min 0 min 90 W/m 0,0 km/h (0 Bft) 93,62 %
09.08.2023 07:58 13,7 C 13,3 C 9,4 C 99 % 1015,3 hPa 0,0 l/m 0 min 0 min 102 W/m 0,0 km/h (0 Bft) 97,87 %
09.08.2023 08:00 13,7 C 13,3 C 9,4 C 99 % 1015,3 hPa 0,0 l/m 0 min 0 min 112 W/m 0,0 km/h (0 Bft) 97,14 %
09.08.2023 08:02 13,7 C 13,3 C 10,0 C 99 % 1015,4 hPa 0,0 l/m 0 min 0 min 113 W/m 0,0 km/h (0 Bft) 96,30 %
09.08.2023 08:04 13,7 C 13,9 C 10,0 C 99 % 1015,4 hPa 0,0 l/m 0 min 0 min 94 W/m 0,0 km/h (0 Bft) 95,35 %
09.08.2023 08:06 13,8 C 13,9 C 10,0 C 99 % 1015,5 hPa 0,0 l/m 0 min 0 min 96 W/m 0,0 km/h (0 Bft) 95,65 %
09.08.2023 08:08 13,8 C 13,3 C 9,4 C 99 % 1015,5 hPa 0,0 l/m 0 min 0 min 94 W/m 0,0 km/h (0 Bft) 97,87 %
09.08.2023 08:10 13,8 C 13,3 C 9,4 C 99 % 1015,5 hPa 0,0 l/m 0 min 0 min 102 W/m 0,0 km/h (0 Bft) 100,00 %
09.08.2023 08:12 13,8 C 13,9 C 9,4 C 99 % 1015,5 hPa 0,0 l/m 0 min 0 min 113 W/m 0,0 km/h (0 Bft) 100,00 %
09.08.2023 08:14 13,8 C 13,9 C 10,0 C 99 % 1015,6 hPa 0,0 l/m 0 min 0 min 116 W/m 0,0 km/h (0 Bft) 100,00 %
09.08.2023 08:16 13,8 C 13,9 C 10,0 C 99 % 1015,5 hPa 0,0 l/m 0 min 0 min 124 W/m 0,0 km/h (0 Bft) 100,00 %
09.08.2023 08:18 13,8 C 13,9 C 10,0 C 99 % 1015,5 hPa 0,0 l/m 0 min 0 min 129 W/m 0,0 km/h (0 Bft) 97,83 %
09.08.2023 08:20 13,8 C 13,9 C 10,0 C 99 % 1015,5 hPa 0,0 l/m 0 min 0 min 144 W/m 0,0 km/h (0 Bft) 97,87 %
09.08.2023 08:22 13,8 C 13,9 C 10,0 C 99 % 1015,5 hPa 0,0 l/m 2 min 0 min 160 W/m 0,0 km/h (0 Bft) 100,00 %
09.08.2023 08:24 13,8 C 13,9 C 10,0 C 99 % 1015,5 hPa 0,0 l/m 0 min 0 min 153 W/m 0,0 km/h (0 Bft) 100,00 %
09.08.2023 08:26 13,9 C 13,9 C 10,0 C 99 % 1015,6 hPa 0,0 l/m 0 min 0 min 129 W/m 0,0 km/h (0 Bft) 100,00 %
09.08.2023 08:28 13,9 C 13,9 C 10,0 C 99 % 1015,6 hPa 0,0 l/m 0 min 0 min 102 W/m 0,0 km/h (0 Bft) 97,87 %
09.08.2023 08:30 13,9 C 13,9 C 10,0 C 99 % 1015,6 hPa 0,0 l/m 0 min 0 min 100 W/m 0,0 km/h (0 Bft) 100,00 %
09.08.2023 08:32 13,9 C 13,9 C 10,0 C 99 % 1015,6 hPa 0,0 l/m 0 min 0 min 86 W/m 0,0 km/h (0 Bft) 97,83 %
09.08.2023 08:34 13,9 C 13,9 C 10,0 C 99 % 1015,7 hPa 0,0 l/m 0 min 0 min 93 W/m 0,0 km/h (0 Bft) 97,87 %
09.08.2023 08:36 13,9 C 13,9 C 10,0 C 99 % 1015,7 hPa 0,0 l/m 0 min 0 min 88 W/m 0,0 km/h (0 Bft) 100,00 %
09.08.2023 08:38 13,9 C 13,9 C 10,0 C 99 % 1015,7 hPa 0,0 l/m 0 min 0 min 84 W/m 0,0 km/h (0 Bft) 100,00 %
09.08.2023 08:40 13,9 C 13,9 C 10,0 C 99 % 1015,6 hPa 0,0 l/m 0 min 0 min 74 W/m 0,0 km/h (0 Bft) 100,00 %
09.08.2023 08:42 13,9 C 13,9 C 10,0 C 99 % 1015,7 hPa 0,0 l/m 0 min 0 min 83 W/m 0,0 km/h (0 Bft) 100,00 %
09.08.2023 08:44 13,9 C 13,9 C 10,0 C 99 % 1015,7 hPa 0,0 l/m 0 min 0 min 84 W/m 0,0 km/h (0 Bft) 97,87 %
09.08.2023 08:46 13,9 C 13,9 C 10,0 C 99 % 1015,8 hPa 0,0 l/m 0 min 0 min 73 W/m 0,0 km/h (0 Bft) 95,65 %
09.08.2023 08:48 13,9 C 13,9 C 9,4 C 99 % 1015,8 hPa 0,0 l/m 0 min 0 min 77 W/m 0,0 km/h (0 Bft) 97,87 %
09.08.2023 08:50 13,9 C 13,9 C 10,0 C 99 % 1015,8 hPa 0,0 l/m 0 min 0 min 82 W/m 0,0 km/h (0 Bft) 97,87 %
09.08.2023 08:52 13,9 C 13,9 C 10,0 C 99 % 1015,9 hPa 0,0 l/m 0 min 0 min 82 W/m 0,0 km/h (0 Bft) 95,74 %
09.08.2023 08:54 13,9 C 13,9 C 10,0 C 99 % 1015,9 hPa 0,0 l/m 0 min 0 min 83 W/m 0,0 km/h (0 Bft) 97,87 %
09.08.2023 08:56 13,9 C 13,9 C 10,0 C 99 % 1015,9 hPa 0,0 l/m 0 min 0 min 65 W/m 0,0 km/h (0 Bft) 97,87 %
09.08.2023 08:58 14,0 C 13,9 C 10,0 C 99 % 1016,0 hPa 0,0 l/m 0 min 0 min 98 W/m 0,0 km/h (0 Bft) 97,83 %
09.08.2023 09:00 14,0 C 13,9 C 10,0 C 99 % 1016,0 hPa 0,0 l/m 0 min 0 min 104 W/m 0,0 km/h (0 Bft) 93,62 %
09.08.2023 09:02 14,1 C 14,4 C 10,6 C 99 % 1016,1 hPa 0,0 l/m 0 min 0 min 123 W/m 0,0 km/h (0 Bft) 95,74 %
09.08.2023 09:04 14,1 C 14,4 C 10,6 C 99 % 1016,1 hPa 0,0 l/m 0 min 0 min 131 W/m 0,0 km/h (0 Bft) 97,96 %
09.08.2023 09:06 14,2 C 14,4 C 10,6 C 99 % 1016,1 hPa 0,0 l/m 0 min 0 min 149 W/m 0,0 km/h (0 Bft) 97,87 %
09.08.2023 09:08 14,2 C 14,4 C 10,0 C 99 % 1016,1 hPa 0,0 l/m 0 min 0 min 148 W/m 9,7 km/h (2 Bft) 97,87 %
09.08.2023 09:10 14,2 C 14,4 C 10,6 C 99 % 1016,2 hPa 0,0 l/m 0 min 0 min 166 W/m 3,2 km/h (1 Bft) 97,83 %
09.08.2023 09:12 14,2 C 14,4 C 10,6 C 99 % 1016,1 hPa 0,0 l/m 0 min 0 min 192 W/m 0,0 km/h (0 Bft) 95,74 %
09.08.2023 09:14 14,2 C 15,0 C 10,6 C 99 % 1016,2 hPa 0,0 l/m 0 min 0 min 218 W/m 3,2 km/h (1 Bft) 97,87 %
09.08.2023 09:16 14,3 C 15,0 C 10,6 C 99 % 1016,1 hPa 0,0 l/m 2 min 0 min 259 W/m 3,2 km/h (1 Bft) 97,87 %
09.08.2023 09:18 14,3 C 15,6 C 11,1 C 99 % 1016,2 hPa 0,0 l/m 2 min 0 min 280 W/m 3,2 km/h (1 Bft) 95,74 %
09.08.2023 09:20 14,3 C 15,6 C 11,1 C 99 % 1016,2 hPa 0,0 l/m 2 min 0 min 251 W/m 6,4 km/h (2 Bft) 95,74 %
09.08.2023 09:22 14,3 C 15,6 C 10,6 C 99 % 1016,2 hPa 0,0 l/m 0 min 0 min 206 W/m 3,2 km/h (1 Bft) 97,87 %
09.08.2023 09:24 14,3 C 15,6 C 10,6 C 99 % 1016,2 hPa 0,0 l/m 0 min 0 min 189 W/m 3,2 km/h (1 Bft) 95,65 %
09.08.2023 09:26 14,3 C 15,6 C 10,6 C 99 % 1016,2 hPa 0,0 l/m 0 min 0 min 186 W/m 6,4 km/h (2 Bft) 95,74 %
09.08.2023 09:28 14,3 C 15,6 C 10,6 C 99 % 1016,2 hPa 0,0 l/m 0 min 0 min 185 W/m 3,2 km/h (1 Bft) 97,87 %
09.08.2023 09:30 14,3 C 15,6 C 11,1 C 99 % 1016,3 hPa 0,0 l/m 0 min 0 min 216 W/m 0,0 km/h (0 Bft) 95,74 %
09.08.2023 09:32 14,4 C 15,6 C 10,6 C 99 % 1016,3 hPa 0,0 l/m 0 min 0 min 230 W/m 3,2 km/h (1 Bft) 100,00 %
09.08.2023 09:34 14,4 C 15,6 C 10,6 C 99 % 1016,4 hPa 0,0 l/m 0 min 0 min 238 W/m 0,0 km/h (0 Bft) 100,00 %
09.08.2023 09:36 14,6 C 16,1 C 11,1 C 99 % 1016,3 hPa 0,0 l/m 2 min 0 min 249 W/m 3,2 km/h (1 Bft) 97,87 %
09.08.2023 09:38 14,6 C 16,1 C 11,1 C 99 % 1016,3 hPa 0,0 l/m 2 min 0 min 310 W/m 3,2 km/h (1 Bft) 97,83 %
09.08.2023 09:40 14,6 C 16,7 C 11,1 C 99 % 1016,4 hPa 0,0 l/m 2 min 0 min 334 W/m 0,0 km/h (0 Bft) 97,87 %
09.08.2023 09:42 14,6 C 16,1 C 11,1 C 99 % 1016,5 hPa 0,0 l/m 2 min 0 min 259 W/m 0,0 km/h (0 Bft) 97,87 %
09.08.2023 09:44 14,6 C 16,1 C 11,1 C 99 % 1016,5 hPa 0,0 l/m 0 min 0 min 227 W/m 3,2 km/h (1 Bft) 97,87 %
09.08.2023 09:46 14,7 C 16,1 C 11,1 C 99 % 1016,5 hPa 0,0 l/m 0 min 0 min 252 W/m 0,0 km/h (0 Bft) 97,87 %
09.08.2023 09:48 14,8 C 16,7 C 11,1 C 99 % 1016,5 hPa 0,0 l/m 0 min 0 min 233 W/m 3,2 km/h (1 Bft) 97,87 %
09.08.2023 09:50 14,8 C 16,1 C 11,1 C 99 % 1016,6 hPa 0,0 l/m 0 min 0 min 172 W/m 6,4 km/h (2 Bft) 95,65 %
09.08.2023 09:52 14,8 C 16,1 C 11,1 C 99 % 1016,5 hPa 0,0 l/m 0 min 0 min 147 W/m 6,4 km/h (2 Bft) 95,74 %
09.08.2023 09:54 14,8 C 16,1 C 11,1 C 98 % 1016,5 hPa 0,0 l/m 0 min 0 min 152 W/m 3,2 km/h (1 Bft) 95,74 %
09.08.2023 09:56 14,8 C 15,6 C 11,1 C 98 % 1016,6 hPa 0,0 l/m 0 min 0 min 153 W/m 3,2 km/h (1 Bft) 93,48 %
09.08.2023 09:58 14,9 C 15,6 C 10,6 C 98 % 1016,6 hPa 0,0 l/m 0 min 0 min 164 W/m 6,4 km/h (2 Bft) 95,74 %
09.08.2023 10:00 14,9 C 15,6 C 10,6 C 98 % 1016,6 hPa 0,0 l/m 0 min 0 min 177 W/m 6,4 km/h (2 Bft) 97,87 %
09.08.2023 10:02 14,8 C 15,6 C 10,6 C 98 % 1016,5 hPa 0,0 l/m 0 min 0 min 179 W/m 3,2 km/h (1 Bft) 95,65 %
09.08.2023 10:04 14,9 C 15,6 C 10,6 C 98 % 1016,6 hPa 0,0 l/m 0 min 0 min 178 W/m 6,4 km/h (2 Bft) 95,74 %
09.08.2023 10:06 14,9 C 15,6 C 11,1 C 98 % 1016,6 hPa 0,0 l/m 0 min 0 min 210 W/m 0,0 km/h (0 Bft) 95,74 %
09.08.2023 10:08 14,9 C 15,6 C 10,6 C 98 % 1016,6 hPa 0,0 l/m 0 min 0 min 215 W/m 3,2 km/h (1 Bft) 95,74 %
09.08.2023 10:10 14,9 C 15,6 C 10,6 C 98 % 1016,6 hPa 0,0 l/m 0 min 0 min 264 W/m 3,2 km/h (1 Bft) 97,87 %
09.08.2023 10:12 15,0 C 16,7 C 11,1 C 97 % 1016,6 hPa 0,0 l/m 2 min 0 min 330 W/m 3,2 km/h (1 Bft) 97,87 %
09.08.2023 10:14 15,1 C 17,2 C 11,1 C 97 % 1016,7 hPa 0,0 l/m 2 min 0 min 613 W/m 6,4 km/h (2 Bft) 95,74 %
09.08.2023 10:16 15,2 C 17,8 C 11,1 C 97 % 1016,7 hPa 0,0 l/m 2 min 0 min 554 W/m 6,4 km/h (2 Bft) 93,48 %
09.08.2023 10:18 15,2 C 17,2 C 11,1 C 97 % 1016,7 hPa 0,0 l/m 0 min 0 min 225 W/m 6,4 km/h (2 Bft) 97,87 %
09.08.2023 10:20 15,3 C 17,2 C 11,1 C 97 % 1016,8 hPa 0,0 l/m 0 min 0 min 237 W/m 3,2 km/h (1 Bft) 97,87 %
09.08.2023 10:22 15,3 C 16,7 C 11,1 C 97 % 1016,7 hPa 0,0 l/m 0 min 0 min 221 W/m 6,4 km/h (2 Bft) 97,87 %
09.08.2023 10:25 15,3 C 16,7 C 11,1 C 96 % 1016,7 hPa 0,0 l/m 0 min 0 min 206 W/m 6,4 km/h (2 Bft) 97,14 %
09.08.2023 10:26 15,4 C 17,2 C 11,1 C 96 % 1016,7 hPa 0,0 l/m 1 min 0 min 469 W/m 3,2 km/h (1 Bft) 100,00 %
09.08.2023 10:30 15,5 C 17,2 C 11,1 C 96 % 1016,7 hPa 0,0 l/m 0 min 0 min 273 W/m 0,0 km/h (0 Bft) 98,21 %
09.08.2023 10:32 15,6 C 17,8 C 11,1 C 96 % 1016,7 hPa 0,0 l/m 2 min 0 min 351 W/m 3,2 km/h (1 Bft) 95,74 %
09.08.2023 10:34 15,7 C 17,8 C 11,1 C 96 % 1016,7 hPa 0,0 l/m 0 min 0 min 262 W/m 6,4 km/h (2 Bft) 100,00 %
09.08.2023 10:36 15,7 C 17,8 C 11,1 C 95 % 1016,8 hPa 0,0 l/m 0 min 0 min 254 W/m 0,0 km/h (0 Bft) 95,74 %
09.08.2023 10:38 15,7 C 17,8 C 11,1 C 95 % 1016,8 hPa 0,0 l/m 0 min 0 min 235 W/m 3,2 km/h (1 Bft) 97,83 %
09.08.2023 10:40 15,7 C 17,8 C 11,1 C 95 % 1016,7 hPa 0,0 l/m 2 min 0 min 386 W/m 6,4 km/h (2 Bft) 100,00 %
09.08.2023 10:42 15,8 C 18,9 C 11,1 C 95 % 1016,7 hPa 0,0 l/m 2 min 0 min 659 W/m 9,7 km/h (2 Bft) 100,00 %
09.08.2023 10:44 15,9 C 18,9 C 11,1 C 95 % 1016,8 hPa 0,0 l/m 2 min 0 min 592 W/m 6,4 km/h (2 Bft) 100,00 %
09.08.2023 10:46 15,9 C 18,3 C 11,1 C 94 % 1016,8 hPa 0,0 l/m 2 min 0 min 587 W/m 0,0 km/h (0 Bft) 97,87 %
09.08.2023 10:48 15,9 C 18,3 C 11,1 C 94 % 1016,8 hPa 0,0 l/m 2 min 0 min 587 W/m 3,2 km/h (1 Bft) 97,87 %
09.08.2023 10:50 16,0 C 18,3 C 11,1 C 94 % 1016,8 hPa 0,0 l/m 2 min 0 min 495 W/m 3,2 km/h (1 Bft) 100,00 %
09.08.2023 10:52 16,1 C 18,3 C 11,1 C 93 % 1016,9 hPa 0,0 l/m 2 min 0 min 411 W/m 6,4 km/h (2 Bft) 97,87 %
09.08.2023 10:54 16,2 C 18,9 C 11,7 C 93 % 1016,8 hPa 0,0 l/m 2 min 0 min 763 W/m 6,4 km/h (2 Bft) 100,00 %
09.08.2023 10:56 16,4 C 18,3 C 11,7 C 93 % 1016,9 hPa 0,0 l/m 2 min 0 min 581 W/m 6,4 km/h (2 Bft) 100,00 %
09.08.2023 10:58 16,4 C 18,3 C 11,1 C 92 % 1016,9 hPa 0,0 l/m 2 min 0 min 386 W/m 3,2 km/h (1 Bft) 100,00 %
09.08.2023 11:00 16,5 C 17,8 C 11,1 C 91 % 1017,0 hPa 0,0 l/m 2 min 0 min 373 W/m 3,2 km/h (1 Bft) 97,87 %
09.08.2023 11:02 16,6 C 17,8 C 11,1 C 90 % 1016,9 hPa 0,0 l/m 0 min 0 min 172 W/m 9,7 km/h (2 Bft) 100,00 %
09.08.2023 11:04 16,6 C 17,2 C 11,1 C 90 % 1017,0 hPa 0,0 l/m 0 min 0 min 175 W/m 3,2 km/h (1 Bft) 100,00 %
09.08.2023 11:06 16,6 C 17,2 C 11,1 C 89 % 1017,0 hPa 0,0 l/m 0 min 0 min 236 W/m 6,4 km/h (2 Bft) 100,00 %
09.08.2023 11:08 16,7 C 17,8 C 11,1 C 89 % 1017,0 hPa 0,0 l/m 2 min 0 min 551 W/m 9,7 km/h (2 Bft) 100,00 %
09.08.2023 11:10 16,7 C 17,8 C 11,1 C 89 % 1017,1 hPa 0,0 l/m 2 min 0 min 765 W/m 6,4 km/h (2 Bft) 100,00 %
09.08.2023 11:12 16,8 C 17,8 C 11,1 C 89 % 1017,0 hPa 0,0 l/m 0 min 0 min 290 W/m 3,2 km/h (1 Bft) 100,00 %
09.08.2023 11:14 16,8 C 17,2 C 11,1 C 89 % 1017,0 hPa 0,0 l/m 0 min 0 min 230 W/m 6,4 km/h (2 Bft) 100,00 %
09.08.2023 11:16 16,8 C 17,8 C 11,7 C 89 % 1017,0 hPa 0,0 l/m 0 min 0 min 297 W/m 0,0 km/h (0 Bft) 100,00 %
09.08.2023 11:18 16,9 C 18,3 C 11,7 C 89 % 1017,0 hPa 0,0 l/m 2 min 0 min 438 W/m 0,0 km/h (0 Bft) 100,00 %
09.08.2023 11:20 16,9 C 18,9 C 11,7 C 88 % 1017,0 hPa 0,0 l/m 2 min 0 min 592 W/m 3,2 km/h (1 Bft) 100,00 %
09.08.2023 11:22 17,0 C 18,9 C 11,7 C 88 % 1017,1 hPa 0,0 l/m 2 min 0 min 522 W/m 3,2 km/h (1 Bft) 100,00 %
09.08.2023 11:24 17,0 C 18,9 C 11,7 C 87 % 1017,0 hPa 0,0 l/m 2 min 0 min 349 W/m 6,4 km/h (2 Bft) 100,00 %
09.08.2023 11:26 17,1 C 18,9 C 11,7 C 87 % 1017,1 hPa 0,0 l/m 2 min 0 min 488 W/m 9,7 km/h (2 Bft) 97,87 %
09.08.2023 11:28 17,2 C 19,4 C 12,2 C 87 % 1017,1 hPa 0,0 l/m 2 min 0 min 466 W/m 9,7 km/h (2 Bft) 100,00 %
09.08.2023 11:30 17,3 C 20,6 C 12,2 C 87 % 1017,1 hPa 0,0 l/m 2 min 0 min 682 W/m 6,4 km/h (2 Bft) 100,00 %
09.08.2023 11:32 17,4 C 21,1 C 12,2 C 87 % 1017,1 hPa 0,0 l/m 2 min 0 min 734 W/m 6,4 km/h (2 Bft) 100,00 %
09.08.2023 11:34 17,6 C 21,7 C 12,2 C 85 % 1017,1 hPa 0,0 l/m 2 min 0 min 721 W/m 6,4 km/h (2 Bft) 100,00 %
09.08.2023 11:36 17,7 C 22,8 C 13,3 C 85 % 1017,1 hPa 0,0 l/m 2 min 0 min 793 W/m 6,4 km/h (2 Bft) 97,87 %
09.08.2023 11:38 17,8 C 22,2 C 13,9 C 85 % 1017,2 hPa 0,0 l/m 2 min 0 min 770 W/m 12,9 km/h (3 Bft) 95,74 %
09.08.2023 11:40 17,9 C 22,2 C 15,0 C 84 % 1017,1 hPa 0,0 l/m 2 min 0 min 829 W/m 6,4 km/h (2 Bft) 97,87 %
09.08.2023 11:42 18,0 C 21,1 C 15,0 C 83 % 1017,2 hPa 0,0 l/m 2 min 0 min 830 W/m 9,7 km/h (2 Bft) 100,00 %
09.08.2023 11:44 18,1 C 20,6 C 15,0 C 83 % 1017,2 hPa 0,0 l/m 2 min 0 min 388 W/m 6,4 km/h (2 Bft) 100,00 %
09.08.2023 11:46 18,2 C 20,0 C 15,0 C 83 % 1017,2 hPa 0,0 l/m 2 min 0 min 365 W/m 6,4 km/h (2 Bft) 97,87 %
09.08.2023 11:48 18,2 C 20,0 C 15,0 C 82 % 1017,2 hPa 0,0 l/m 0 min 0 min 301 W/m 3,2 km/h (1 Bft) 95,74 %
09.08.2023 11:50 18,2 C 18,9 C 15,0 C 83 % 1017,2 hPa 0,0 l/m 0 min 0 min 253 W/m 6,4 km/h (2 Bft) 97,87 %
09.08.2023 11:52 18,2 C 18,9 C 15,0 C 82 % 1017,2 hPa 0,0 l/m 0 min 0 min 236 W/m 9,7 km/h (2 Bft) 95,74 %
09.08.2023 11:54 18,2 C 18,9 C 14,4 C 82 % 1017,2 hPa 0,0 l/m 0 min 0 min 257 W/m 3,2 km/h (1 Bft) 95,74 %
09.08.2023 11:56 18,2 C 18,3 C 14,4 C 82 % 1017,2 hPa 0,0 l/m 0 min 0 min 245 W/m 6,4 km/h (2 Bft) 97,83 %
09.08.2023 11:58 18,2 C 18,9 C 14,4 C 82 % 1017,2 hPa 0,0 l/m 0 min 0 min 290 W/m 6,4 km/h (2 Bft) 95,74 %
09.08.2023 12:00 18,2 C 19,4 C 15,0 C 81 % 1017,3 hPa 0,0 l/m 2 min 0 min 432 W/m 12,9 km/h (3 Bft) 95,74 %
09.08.2023 12:02 18,2 C 19,4 C 15,0 C 81 % 1017,2 hPa 0,0 l/m 2 min 0 min 518 W/m 0,0 km/h (0 Bft) 97,87 %
09.08.2023 12:04 18,2 C 20,0 C 15,6 C 81 % 1017,2 hPa 0,0 l/m 2 min 0 min 463 W/m 0,0 km/h (0 Bft) 97,56 %
09.08.2023 12:08 18,3 C 21,7 C 16,1 C 80 % 1017,4 hPa 0,0 l/m 4 min 0 min 592 W/m 0,0 km/h (0 Bft) 92,08 %
09.08.2023 12:10 18,4 C 22,8 C 16,7 C 80 % 1017,4 hPa 0,0 l/m 2 min 0 min 774 W/m 12,9 km/h (3 Bft) 93,62 %
09.08.2023 12:12 18,6 C 22,8 C 16,7 C 80 % 1017,4 hPa 0,0 l/m 2 min 0 min 834 W/m 6,4 km/h (2 Bft) 95,83 %
09.08.2023 12:14 18,7 C 23,3 C 17,2 C 81 % 1017,4 hPa 0,0 l/m 2 min 0 min 673 W/m 6,4 km/h (2 Bft) 91,49 %
09.08.2023 12:16 18,8 C 22,2 C 17,2 C 79 % 1017,4 hPa 0,0 l/m 2 min 0 min 704 W/m 6,4 km/h (2 Bft) 93,62 %
09.08.2023 12:18 18,9 C 22,2 C 17,2 C 78 % 1017,4 hPa 0,0 l/m 2 min 0 min 539 W/m 6,4 km/h (2 Bft) 93,62 %
09.08.2023 12:20 18,9 C 22,2 C 17,2 C 78 % 1017,4 hPa 0,0 l/m 2 min 0 min 562 W/m 6,4 km/h (2 Bft) 93,48 %
09.08.2023 12:22 19,0 C 22,2 C 17,2 C 78 % 1017,4 hPa 0,0 l/m 2 min 0 min 493 W/m 3,2 km/h (1 Bft) 91,49 %
09.08.2023 12:24 19,1 C 22,2 C 16,7 C 78 % 1017,3 hPa 0,0 l/m 2 min 0 min 468 W/m 3,2 km/h (1 Bft) 95,74 %
09.08.2023 12:26 19,2 C 21,7 C 16,7 C 78 % 1017,3 hPa 0,0 l/m 2 min 0 min 437 W/m 6,4 km/h (2 Bft) 95,74 %
09.08.2023 12:28 19,3 C 21,7 C 16,7 C 78 % 1017,4 hPa 0,0 l/m 2 min 0 min 402 W/m 9,7 km/h (2 Bft) 93,62 %
09.08.2023 12:30 19,3 C 21,1 C 16,7 C 78 % 1017,3 hPa 0,0 l/m 2 min 0 min 486 W/m 9,7 km/h (2 Bft) 93,62 %
09.08.2023 12:32 19,3 C 21,7 C 16,7 C 78 % 1017,3 hPa 0,0 l/m 2 min 0 min 557 W/m 6,4 km/h (2 Bft) 95,74 %
09.08.2023 12:34 19,3 C 21,7 C 16,7 C 77 % 1017,3 hPa 0,0 l/m 2 min 0 min 557 W/m 9,7 km/h (2 Bft) 91,30 %
09.08.2023 12:36 19,3 C 21,7 C 16,7 C 78 % 1017,4 hPa 0,0 l/m 2 min 0 min 572 W/m 9,7 km/h (2 Bft) 91,49 %
09.08.2023 12:38 19,2 C 21,1 C 16,7 C 77 % 1017,3 hPa 0,0 l/m 2 min 0 min 549 W/m 6,4 km/h (2 Bft) 95,74 %
09.08.2023 12:40 19,2 C 21,1 C 16,7 C 77 % 1017,3 hPa 0,0 l/m 2 min 0 min 538 W/m 6,4 km/h (2 Bft) 91,49 %
09.08.2023 12:42 19,2 C 20,6 C 16,7 C 76 % 1017,3 hPa 0,0 l/m 2 min 0 min 474 W/m 6,4 km/h (2 Bft) 95,74 %
09.08.2023 12:44 19,1 C 20,0 C 16,1 C 75 % 1017,4 hPa 0,0 l/m 0 min 0 min 385 W/m 6,4 km/h (2 Bft) 95,74 %
09.08.2023 12:46 19,0 C 20,0 C 16,1 C 75 % 1017,4 hPa 0,0 l/m 0 min 0 min 373 W/m 3,2 km/h (1 Bft) 93,48 %
09.08.2023 12:48 19,0 C 20,0 C 16,1 C 76 % 1017,3 hPa 0,0 l/m 2 min 0 min 424 W/m 3,2 km/h (1 Bft) 91,49 %
09.08.2023 12:50 19,1 C 20,6 C 16,1 C 76 % 1017,3 hPa 0,0 l/m 2 min 0 min 507 W/m 6,4 km/h (2 Bft) 95,74 %
09.08.2023 12:52 19,1 C 21,1 C 16,1 C 77 % 1017,3 hPa 0,0 l/m 2 min 0 min 515 W/m 12,9 km/h (3 Bft) 93,62 %
09.08.2023 12:54 19,2 C 20,6 C 16,1 C 77 % 1017,4 hPa 0,0 l/m 2 min 0 min 460 W/m 12,9 km/h (3 Bft) 97,87 %
09.08.2023 12:56 19,3 C 20,6 C 16,1 C 77 % 1017,3 hPa 0,0 l/m 2 min 0 min 404 W/m 3,2 km/h (1 Bft) 97,87 %
09.08.2023 12:58 19,4 C 21,1 C 16,1 C 77 % 1017,3 hPa 0,0 l/m 2 min 0 min 395 W/m 3,2 km/h (1 Bft) 95,74 %
09.08.2023 13:00 19,5 C 21,1 C 16,1 C 77 % 1017,3 hPa 0,0 l/m 2 min 0 min 414 W/m 3,2 km/h (1 Bft) 97,83 %
09.08.2023 13:02 19,6 C 21,1 C 16,1 C 77 % 1017,3 hPa 0,0 l/m 2 min 0 min 410 W/m 0,0 km/h (0 Bft) 95,74 %
09.08.2023 13:04 19,7 C 21,1 C 16,1 C 77 % 1017,3 hPa 0,0 l/m 2 min 0 min 438 W/m 3,2 km/h (1 Bft) 95,74 %
09.08.2023 13:06 19,7 C 21,1 C 16,7 C 75 % 1017,4 hPa 0,0 l/m 2 min 0 min 461 W/m 3,2 km/h (1 Bft) 95,83 %
09.08.2023 13:08 19,7 C 21,1 C 16,7 C 74 % 1017,4 hPa 0,0 l/m 2 min 0 min 497 W/m 12,9 km/h (3 Bft) 97,87 %
09.08.2023 13:10 19,8 C 21,7 C 16,7 C 75 % 1017,4 hPa 0,0 l/m 2 min 0 min 516 W/m 6,4 km/h (2 Bft) 95,74 %
09.08.2023 13:12 19,8 C 21,7 C 16,7 C 74 % 1017,4 hPa 0,0 l/m 2 min 0 min 597 W/m 6,4 km/h (2 Bft) 97,87 %
09.08.2023 13:14 19,9 C 21,7 C 17,2 C 74 % 1017,4 hPa 0,0 l/m 2 min 0 min 559 W/m 6,4 km/h (2 Bft) 97,83 %
09.08.2023 13:16 20,0 C 22,2 C 17,2 C 74 % 1017,4 hPa 0,0 l/m 2 min 0 min 498 W/m 6,4 km/h (2 Bft) 95,74 %
09.08.2023 13:18 20,1 C 22,2 C 17,2 C 73 % 1017,4 hPa 0,0 l/m 2 min 0 min 511 W/m 16,1 km/h (3 Bft) 97,87 %
09.08.2023 13:20 20,1 C 22,2 C 17,2 C 73 % 1017,5 hPa 0,0 l/m 2 min 0 min 531 W/m 12,9 km/h (3 Bft) 100,00 %
09.08.2023 13:22 20,2 C 21,7 C 17,2 C 72 % 1017,5 hPa 0,0 l/m 2 min 0 min 616 W/m 6,4 km/h (2 Bft) 97,87 %
09.08.2023 13:24 20,3 C 22,2 C 17,2 C 72 % 1017,5 hPa 0,0 l/m 2 min 0 min 768 W/m 9,7 km/h (2 Bft) 100,00 %
09.08.2023 13:26 20,3 C 22,2 C 17,2 C 71 % 1017,5 hPa 0,0 l/m 2 min 0 min 821 W/m 12,9 km/h (3 Bft) 100,00 %
09.08.2023 13:28 20,3 C 22,2 C 17,2 C 71 % 1017,5 hPa 0,0 l/m 2 min 0 min 766 W/m 9,7 km/h (2 Bft) 97,83 %
09.08.2023 13:30 20,4 C 22,2 C 17,2 C 72 % 1017,5 hPa 0,0 l/m 2 min 0 min 476 W/m 6,4 km/h (2 Bft) 97,87 %
09.08.2023 13:32 20,6 C 22,2 C 17,2 C 72 % 1017,5 hPa 0,0 l/m 2 min 0 min 488 W/m 12,9 km/h (3 Bft) 100,00 %
09.08.2023 13:34 20,6 C 22,2 C 17,8 C 70 % 1017,5 hPa 0,0 l/m 2 min 0 min 464 W/m 9,7 km/h (2 Bft) 97,87 %
09.08.2023 13:36 20,6 C 21,7 C 17,2 C 69 % 1017,6 hPa 0,0 l/m 2 min 0 min 441 W/m 6,4 km/h (2 Bft) 100,00 %
09.08.2023 13:38 20,6 C 21,1 C 17,2 C 69 % 1017,5 hPa 0,0 l/m 2 min 0 min 422 W/m 12,9 km/h (3 Bft) 100,00 %
09.08.2023 13:40 20,5 C 21,1 C 17,2 C 69 % 1017,5 hPa 0,0 l/m 2 min 0 min 441 W/m 6,4 km/h (2 Bft) 97,83 %
09.08.2023 13:42 20,4 C 21,1 C 17,2 C 69 % 1017,5 hPa 0,0 l/m 2 min 0 min 396 W/m 3,2 km/h (1 Bft) 100,00 %
09.08.2023 13:44 20,4 C 21,1 C 16,7 C 69 % 1017,5 hPa 0,0 l/m 0 min 0 min 358 W/m 12,9 km/h (3 Bft) 97,87 %
09.08.2023 13:46 20,4 C 21,1 C 16,7 C 70 % 1017,4 hPa 0,0 l/m 0 min 0 min 343 W/m 9,7 km/h (2 Bft) 97,87 %
09.08.2023 13:48 20,4 C 20,6 C 16,7 C 69 % 1017,5 hPa 0,0 l/m 0 min 0 min 380 W/m 6,4 km/h (2 Bft) 100,00 %
09.08.2023 13:50 20,3 C 21,1 C 16,7 C 70 % 1017,4 hPa 0,0 l/m 2 min 0 min 432 W/m 6,4 km/h (2 Bft) 97,87 %
09.08.2023 13:52 20,3 C 21,1 C 16,7 C 70 % 1017,5 hPa 0,0 l/m 2 min 0 min 398 W/m 6,4 km/h (2 Bft) 97,87 %
09.08.2023 13:54 20,3 C 21,7 C 16,7 C 71 % 1017,5 hPa 0,0 l/m 0 min 0 min 390 W/m 6,4 km/h (2 Bft) 100,00 %
09.08.2023 13:56 20,4 C 21,1 C 16,7 C 70 % 1017,6 hPa 0,0 l/m 0 min 0 min 380 W/m 12,9 km/h (3 Bft) 100,00 %
09.08.2023 13:58 20,3 C 21,1 C 16,7 C 69 % 1017,6 hPa 0,0 l/m 0 min 0 min 353 W/m 16,1 km/h (3 Bft) 95,74 %
09.08.2023 14:00 20,4 C 21,1 C 16,7 C 70 % 1017,6 hPa 0,0 l/m 0 min 0 min 360 W/m 16,1 km/h (3 Bft) 97,87 %
09.08.2023 14:02 20,3 C 21,1 C 17,2 C 69 % 1017,6 hPa 0,0 l/m 2 min 0 min 395 W/m 9,7 km/h (2 Bft) 97,87 %
09.08.2023 14:04 20,4 C 21,1 C 17,2 C 70 % 1017,6 hPa 0,0 l/m 2 min 0 min 429 W/m 9,7 km/h (2 Bft) 95,12 %
09.08.2023 14:06 20,4 C 21,7 C 17,2 C 70 % 1017,6 hPa 0,0 l/m 2 min 0 min 456 W/m 12,9 km/h (3 Bft) 98,15 %
09.08.2023 14:08 20,5 C 22,2 C 17,2 C 70 % 1017,6 hPa 0,0 l/m 2 min 0 min 446 W/m 9,7 km/h (2 Bft) 95,65 %
09.08.2023 14:10 20,6 C 22,2 C 17,2 C 71 % 1017,6 hPa 0,0 l/m 2 min 0 min 439 W/m 9,7 km/h (2 Bft) 94,44 %
09.08.2023 14:12 20,6 C 21,7 C 17,2 C 69 % 1017,6 hPa 0,0 l/m 2 min 0 min 480 W/m 6,4 km/h (2 Bft) 97,83 %
09.08.2023 14:14 20,7 C 22,2 C 17,2 C 69 % 1017,6 hPa 0,0 l/m 2 min 0 min 514 W/m 6,4 km/h (2 Bft) 97,87 %
09.08.2023 14:16 20,7 C 22,2 C 17,2 C 69 % 1017,6 hPa 0,0 l/m 2 min 0 min 528 W/m 9,7 km/h (2 Bft) 95,74 %
09.08.2023 14:18 20,8 C 22,2 C 17,2 C 68 % 1017,6 hPa 0,0 l/m 2 min 0 min 547 W/m 9,7 km/h (2 Bft) 97,87 %
09.08.2023 14:20 20,8 C 22,2 C 17,2 C 68 % 1017,6 hPa 0,0 l/m 2 min 0 min 551 W/m 12,9 km/h (3 Bft) 95,74 %
09.08.2023 14:22 20,8 C 22,2 C 17,8 C 68 % 1017,7 hPa 0,0 l/m 2 min 0 min 510 W/m 16,1 km/h (3 Bft) 95,74 %
09.08.2023 14:24 20,8 C 22,2 C 17,2 C 68 % 1017,7 hPa 0,0 l/m 2 min 0 min 435 W/m 9,7 km/h (2 Bft) 97,83 %
09.08.2023 14:26 20,8 C 21,7 C 17,2 C 68 % 1017,7 hPa 0,0 l/m 0 min 0 min 355 W/m 3,2 km/h (1 Bft) 97,87 %
09.08.2023 14:28 20,8 C 21,7 C 17,2 C 68 % 1017,7 hPa 0,0 l/m 0 min 0 min 318 W/m 16,1 km/h (3 Bft) 93,62 %
09.08.2023 14:30 20,8 C 21,1 C 17,2 C 68 % 1017,7 hPa 0,0 l/m 0 min 0 min 285 W/m 12,9 km/h (3 Bft) 97,87 %
09.08.2023 14:32 20,8 C 22,2 C 17,2 C 69 % 1017,8 hPa 0,0 l/m 0 min 0 min 327 W/m 6,4 km/h (2 Bft) 93,62 %
09.08.2023 14:34 20,8 C 23,3 C 17,2 C 68 % 1017,7 hPa 0,0 l/m 0 min 0 min 347 W/m 9,7 km/h (2 Bft) 95,74 %
09.08.2023 14:36 20,9 C 23,9 C 17,2 C 68 % 1017,7 hPa 0,0 l/m 0 min 0 min 351 W/m 12,9 km/h (3 Bft) 100,00 %
09.08.2023 14:38 21,0 C 25,6 C 17,2 C 68 % 1017,8 hPa 0,0 l/m 2 min 0 min 403 W/m 12,9 km/h (3 Bft) 97,83 %
09.08.2023 14:40 21,1 C 26,7 C 17,2 C 68 % 1017,7 hPa 0,0 l/m 2 min 0 min 971 W/m 3,2 km/h (1 Bft) 95,74 %
09.08.2023 14:42 21,3 C 26,1 C 17,2 C 67 % 1017,7 hPa 0,0 l/m 2 min 0 min 872 W/m 3,2 km/h (1 Bft) 97,87 %
09.08.2023 14:44 21,4 C 25,0 C 17,8 C 68 % 1017,7 hPa 0,0 l/m 2 min 0 min 813 W/m 9,7 km/h (2 Bft) 97,87 %
09.08.2023 14:46 21,4 C 24,4 C 17,8 C 68 % 1017,7 hPa 0,0 l/m 0 min 0 min 292 W/m 12,9 km/h (3 Bft) 95,74 %
09.08.2023 14:48 21,4 C 23,3 C 17,2 C 66 % 1017,8 hPa 0,0 l/m 0 min 0 min 294 W/m 19,3 km/h (3 Bft) 97,87 %
09.08.2023 14:50 21,4 C 23,3 C 17,8 C 67 % 1017,7 hPa 0,0 l/m 0 min 0 min 316 W/m 6,4 km/h (2 Bft) 97,87 %
09.08.2023 14:52 21,4 C 23,9 C 17,8 C 66 % 1017,7 hPa 0,0 l/m 2 min 0 min 388 W/m 9,7 km/h (2 Bft) 91,30 %
09.08.2023 14:54 21,6 C 23,9 C 17,8 C 67 % 1017,7 hPa 0,0 l/m 0 min 0 min 368 W/m 12,9 km/h (3 Bft) 97,87 %
09.08.2023 14:56 21,6 C 23,3 C 17,8 C 68 % 1017,7 hPa 0,0 l/m 0 min 0 min 368 W/m 12,9 km/h (3 Bft) 97,87 %
09.08.2023 14:58 21,6 C 23,9 C 17,8 C 67 % 1017,8 hPa 0,0 l/m 2 min 0 min 473 W/m 12,9 km/h (3 Bft) 95,74 %
09.08.2023 15:00 21,7 C 24,4 C 17,8 C 66 % 1017,8 hPa 0,0 l/m 2 min 0 min 738 W/m 16,1 km/h (3 Bft) 97,87 %
09.08.2023 15:02 21,8 C 26,1 C 17,8 C 67 % 1017,7 hPa 0,0 l/m 2 min 0 min 606 W/m 12,9 km/h (3 Bft) 95,74 %
09.08.2023 15:04 21,8 C 26,1 C 17,8 C 65 % 1017,7 hPa 0,0 l/m 2 min 0 min 663 W/m 12,9 km/h (3 Bft) 95,24 %
09.08.2023 15:06 21,8 C 26,7 C 17,8 C 63 % 1017,8 hPa 0,0 l/m 2 min 0 min 854 W/m 16,1 km/h (3 Bft) 98,28 %
09.08.2023 15:08 22,0 C 26,1 C 17,8 C 65 % 1017,8 hPa 0,0 l/m 2 min 0 min 935 W/m 12,9 km/h (3 Bft) 97,22 %
09.08.2023 15:10 22,1 C 26,1 C 18,3 C 65 % 1017,7 hPa 0,0 l/m 2 min 0 min 388 W/m 9,7 km/h (2 Bft) 95,65 %
09.08.2023 15:12 22,1 C 26,7 C 18,3 C 63 % 1017,8 hPa 0,0 l/m 2 min 0 min 603 W/m 12,9 km/h (3 Bft) 95,74 %
09.08.2023 15:14 22,3 C 26,7 C 18,3 C 64 % 1017,7 hPa 0,0 l/m 2 min 0 min 940 W/m 12,9 km/h (3 Bft) 95,74 %
09.08.2023 15:16 22,4 C 27,2 C 18,3 C 63 % 1017,6 hPa 0,0 l/m 2 min 0 min 915 W/m 16,1 km/h (3 Bft) 95,74 %
09.08.2023 15:18 22,5 C 26,7 C 18,3 C 63 % 1017,7 hPa 0,0 l/m 2 min 0 min 416 W/m 16,1 km/h (3 Bft) 95,74 %
09.08.2023 15:20 22,6 C 26,7 C 18,3 C 63 % 1017,7 hPa 0,0 l/m 2 min 0 min 942 W/m 16,1 km/h (3 Bft) 100,00 %
09.08.2023 15:22 22,6 C 26,1 C 18,3 C 63 % 1017,7 hPa 0,0 l/m 2 min 0 min 949 W/m 12,9 km/h (3 Bft) 97,87 %
09.08.2023 15:24 22,6 C 26,1 C 18,3 C 63 % 1017,6 hPa 0,0 l/m 2 min 0 min 976 W/m 16,1 km/h (3 Bft) 95,65 %
09.08.2023 15:26 22,6 C 26,1 C 18,3 C 62 % 1017,6 hPa 0,0 l/m 2 min 0 min 977 W/m 16,1 km/h (3 Bft) 97,87 %
09.08.2023 15:28 22,6 C 25,0 C 18,3 C 62 % 1017,6 hPa 0,0 l/m 2 min 0 min 977 W/m 6,4 km/h (2 Bft) 97,87 %
09.08.2023 15:30 22,6 C 24,4 C 18,3 C 61 % 1017,6 hPa 0,0 l/m 2 min 0 min 977 W/m 6,4 km/h (2 Bft) 97,87 %
09.08.2023 15:32 22,6 C 25,0 C 18,3 C 63 % 1017,7 hPa 0,0 l/m 2 min 0 min 957 W/m 12,9 km/h (3 Bft) 95,74 %
09.08.2023 15:34 22,6 C 25,6 C 18,3 C 63 % 1017,6 hPa 0,0 l/m 2 min 0 min 851 W/m 12,9 km/h (3 Bft) 97,87 %
09.08.2023 15:36 22,7 C 26,1 C 18,3 C 62 % 1017,6 hPa 0,0 l/m 2 min 0 min 818 W/m 12,9 km/h (3 Bft) 100,00 %
09.08.2023 15:38 22,7 C 25,0 C 17,8 C 62 % 1017,6 hPa 0,0 l/m 2 min 0 min 821 W/m 12,9 km/h (3 Bft) 100,00 %
09.08.2023 15:40 22,7 C 24,4 C 17,8 C 61 % 1017,6 hPa 0,0 l/m 2 min 0 min 822 W/m 9,7 km/h (2 Bft) 95,74 %
09.08.2023 15:42 22,7 C 23,9 C 17,8 C 62 % 1017,6 hPa 0,0 l/m 2 min 0 min 786 W/m 6,4 km/h (2 Bft) 100,00 %
09.08.2023 15:44 22,7 C 23,3 C 17,8 C 63 % 1017,6 hPa 0,0 l/m 0 min 0 min 178 W/m 9,7 km/h (2 Bft) 100,00 %
09.08.2023 15:46 22,6 C 22,8 C 17,8 C 62 % 1017,6 hPa 0,0 l/m 0 min 0 min 195 W/m 9,7 km/h (2 Bft) 97,87 %
09.08.2023 15:48 22,6 C 25,0 C 17,8 C 64 % 1017,6 hPa 0,0 l/m 2 min 0 min 546 W/m 6,4 km/h (2 Bft) 97,87 %
09.08.2023 15:50 22,7 C 25,6 C 17,8 C 64 % 1017,7 hPa 0,0 l/m 2 min 0 min 916 W/m 12,9 km/h (3 Bft) 95,65 %
09.08.2023 15:52 22,7 C 25,6 C 18,3 C 62 % 1017,7 hPa 0,0 l/m 2 min 0 min 457 W/m 9,7 km/h (2 Bft) 95,74 %
09.08.2023 15:54 22,7 C 25,0 C 18,3 C 63 % 1017,7 hPa 0,0 l/m 2 min 0 min 352 W/m 6,4 km/h (2 Bft) 95,74 %
09.08.2023 15:56 22,8 C 23,9 C 18,3 C 63 % 1017,7 hPa 0,0 l/m 0 min 0 min 234 W/m 6,4 km/h (2 Bft) 97,87 %
09.08.2023 15:58 22,7 C 23,3 C 17,8 C 62 % 1017,8 hPa 0,0 l/m 0 min 0 min 255 W/m 9,7 km/h (2 Bft) 95,74 %
09.08.2023 16:00 22,6 C 22,8 C 17,8 C 62 % 1017,7 hPa 0,0 l/m 0 min 0 min 273 W/m 6,4 km/h (2 Bft) 96,30 %
09.08.2023 16:02 22,4 C 22,8 C 17,8 C 61 % 1017,8 hPa 0,0 l/m 0 min 0 min 258 W/m 9,7 km/h (2 Bft) 94,00 %
09.08.2023 16:04 22,3 C 24,4 C 17,8 C 62 % 1017,7 hPa 0,0 l/m 0 min 0 min 253 W/m 6,4 km/h (2 Bft) 93,62 %
09.08.2023 16:06 22,3 C 26,1 C 17,8 C 62 % 1017,6 hPa 0,0 l/m 2 min 0 min 830 W/m 6,4 km/h (2 Bft) 95,74 %
09.08.2023 16:08 22,4 C 25,6 C 17,8 C 64 % 1017,7 hPa 0,0 l/m 2 min 0 min 871 W/m 6,4 km/h (2 Bft) 93,62 %
09.08.2023 16:10 22,6 C 25,6 C 18,3 C 64 % 1017,7 hPa 0,0 l/m 2 min 0 min 881 W/m 12,9 km/h (3 Bft) 95,65 %
09.08.2023 16:12 22,6 C 24,4 C 18,3 C 62 % 1017,7 hPa 0,0 l/m 2 min 0 min 823 W/m 12,9 km/h (3 Bft) 95,74 %
09.08.2023 16:14 22,6 C 23,3 C 18,3 C 62 % 1017,7 hPa 0,0 l/m 0 min 0 min 244 W/m 6,4 km/h (2 Bft) 95,74 %
09.08.2023 16:16 22,6 C 22,8 C 17,8 C 62 % 1017,8 hPa 0,0 l/m 0 min 0 min 227 W/m 6,4 km/h (2 Bft) 95,74 %
09.08.2023 16:18 22,4 C 22,2 C 17,8 C 61 % 1017,7 hPa 0,0 l/m 0 min 0 min 233 W/m 12,9 km/h (3 Bft) 95,74 %
09.08.2023 16:20 22,4 C 22,2 C 17,8 C 61 % 1017,7 hPa 0,0 l/m 0 min 0 min 231 W/m 12,9 km/h (3 Bft) 93,62 %
09.08.2023 16:22 22,3 C 22,2 C 17,8 C 62 % 1017,8 hPa 0,0 l/m 0 min 0 min 242 W/m 12,9 km/h (3 Bft) 95,65 %
09.08.2023 16:24 22,2 C 21,7 C 17,8 C 62 % 1017,8 hPa 0,0 l/m 0 min 0 min 236 W/m 12,9 km/h (3 Bft) 95,74 %
09.08.2023 16:26 22,2 C 22,2 C 17,8 C 62 % 1017,7 hPa 0,0 l/m 0 min 0 min 269 W/m 12,9 km/h (3 Bft) 93,62 %
09.08.2023 16:28 22,2 C 22,8 C 17,8 C 63 % 1017,7 hPa 0,0 l/m 0 min 0 min 290 W/m 6,4 km/h (2 Bft) 95,74 %
09.08.2023 16:30 22,2 C 23,3 C 17,8 C 63 % 1017,7 hPa 0,0 l/m 2 min 0 min 736 W/m 6,4 km/h (2 Bft) 95,74 %
09.08.2023 16:32 22,3 C 23,9 C 17,8 C 63 % 1017,7 hPa 0,0 l/m 2 min 0 min 745 W/m 9,7 km/h (2 Bft) 93,62 %
09.08.2023 16:34 22,4 C 24,4 C 18,3 C 62 % 1017,7 hPa 0,0 l/m 2 min 0 min 717 W/m 12,9 km/h (3 Bft) 95,74 %
09.08.2023 16:36 22,5 C 23,9 C 17,8 C 61 % 1017,7 hPa 0,0 l/m 2 min 0 min 656 W/m 9,7 km/h (2 Bft) 95,65 %
09.08.2023 16:38 22,6 C 23,9 C 17,8 C 62 % 1017,7 hPa 0,0 l/m 0 min 0 min 251 W/m 9,7 km/h (2 Bft) 95,74 %
09.08.2023 16:40 22,6 C 23,9 C 17,8 C 62 % 1017,7 hPa 0,0 l/m 0 min 0 min 251 W/m 12,9 km/h (3 Bft) 95,74 %
09.08.2023 16:42 22,6 C 24,4 C 18,3 C 62 % 1017,8 hPa 0,0 l/m 0 min 0 min 251 W/m 12,9 km/h (3 Bft) 97,87 %
09.08.2023 16:44 22,7 C 24,4 C 18,3 C 63 % 1017,8 hPa 0,0 l/m 2 min 0 min 328 W/m 12,9 km/h (3 Bft) 97,87 %
09.08.2023 16:46 22,7 C 23,9 C 18,3 C 62 % 1017,8 hPa 0,0 l/m 2 min 0 min 357 W/m 16,1 km/h (3 Bft) 100,00 %
09.08.2023 16:48 22,6 C 22,8 C 17,8 C 63 % 1017,8 hPa 0,0 l/m 0 min 0 min 211 W/m 6,4 km/h (2 Bft) 100,00 %
09.08.2023 16:50 22,6 C 22,8 C 17,8 C 62 % 1017,8 hPa 0,0 l/m 0 min 0 min 203 W/m 12,9 km/h (3 Bft) 100,00 %
09.08.2023 16:52 22,5 C 22,8 C 17,8 C 63 % 1017,8 hPa 0,0 l/m 0 min 0 min 211 W/m 6,4 km/h (2 Bft) 100,00 %
09.08.2023 16:54 22,5 C 23,3 C 17,8 C 63 % 1017,8 hPa 0,0 l/m 2 min 0 min 521 W/m 9,7 km/h (2 Bft) 100,00 %
09.08.2023 16:56 22,6 C 24,4 C 18,3 C 63 % 1017,8 hPa 0,0 l/m 2 min 0 min 684 W/m 12,9 km/h (3 Bft) 100,00 %
09.08.2023 16:58 22,7 C 25,0 C 18,3 C 62 % 1017,9 hPa 0,0 l/m 2 min 0 min 714 W/m 12,9 km/h (3 Bft) 100,00 %
09.08.2023 17:00 22,7 C 25,0 C 18,3 C 61 % 1017,8 hPa 0,0 l/m 2 min 0 min 645 W/m 12,9 km/h (3 Bft) 100,00 %
09.08.2023 17:02 22,7 C 24,4 C 18,3 C 61 % 1017,8 hPa 0,0 l/m 0 min 0 min 240 W/m 12,9 km/h (3 Bft) 100,00 %
09.08.2023 17:04 22,8 C 25,6 C 18,3 C 62 % 1017,8 hPa 0,0 l/m 0 min 0 min 252 W/m 19,3 km/h (3 Bft) 100,00 %
09.08.2023 17:06 22,8 C 25,6 C 18,3 C 61 % 1017,8 hPa 0,0 l/m 2 min 0 min 737 W/m 16,1 km/h (3 Bft) 98,31 %
09.08.2023 17:08 22,9 C 26,1 C 18,3 C 61 % 1017,8 hPa 0,0 l/m 2 min 0 min 675 W/m 16,1 km/h (3 Bft) 97,14 %
09.08.2023 17:10 23,1 C 26,1 C 18,9 C 62 % 1017,9 hPa 0,0 l/m 2 min 0 min 665 W/m 9,7 km/h (2 Bft) 97,87 %
09.08.2023 17:12 23,1 C 24,4 C 18,3 C 61 % 1017,9 hPa 0,0 l/m 0 min 0 min 172 W/m 9,7 km/h (2 Bft) 95,74 %
09.08.2023 17:14 23,0 C 23,3 C 18,3 C 61 % 1017,9 hPa 0,0 l/m 0 min 0 min 164 W/m 16,1 km/h (3 Bft) 97,83 %
09.08.2023 17:16 22,8 C 23,3 C 18,3 C 61 % 1018,0 hPa 0,0 l/m 0 min 0 min 179 W/m 9,7 km/h (2 Bft) 97,87 %
09.08.2023 17:18 22,8 C 23,3 C 17,8 C 62 % 1018,0 hPa 0,0 l/m 0 min 0 min 202 W/m 9,7 km/h (2 Bft) 97,87 %
09.08.2023 17:20 22,7 C 22,8 C 17,8 C 62 % 1017,9 hPa 0,0 l/m 0 min 0 min 239 W/m 9,7 km/h (2 Bft) 97,87 %
09.08.2023 17:22 22,6 C 22,8 C 17,8 C 62 % 1017,9 hPa 0,0 l/m 0 min 0 min 229 W/m 9,7 km/h (2 Bft) 100,00 %
09.08.2023 17:24 22,6 C 22,2 C 17,8 C 62 % 1018,0 hPa 0,0 l/m 0 min 0 min 188 W/m 12,9 km/h (3 Bft) 95,74 %
09.08.2023 17:26 22,4 C 22,2 C 17,8 C 63 % 1018,0 hPa 0,0 l/m 0 min 0 min 179 W/m 12,9 km/h (3 Bft) 95,74 %
09.08.2023 17:28 22,4 C 22,8 C 17,8 C 63 % 1018,1 hPa 0,0 l/m 0 min 0 min 191 W/m 12,9 km/h (3 Bft) 97,83 %
09.08.2023 17:30 22,4 C 23,9 C 17,8 C 63 % 1018,0 hPa 0,0 l/m 2 min 0 min 474 W/m 12,9 km/h (3 Bft) 98,00 %
09.08.2023 17:32 22,4 C 24,4 C 18,3 C 63 % 1018,0 hPa 0,0 l/m 2 min 0 min 601 W/m 9,7 km/h (2 Bft) 97,87 %
09.08.2023 17:34 22,5 C 25,0 C 18,3 C 63 % 1018,0 hPa 0,0 l/m 2 min 0 min 600 W/m 12,9 km/h (3 Bft) 97,14 %
09.08.2023 17:36 22,5 C 25,0 C 18,3 C 62 % 1018,0 hPa 0,0 l/m 2 min 0 min 583 W/m 16,1 km/h (3 Bft) 97,96 %
09.08.2023 17:38 22,6 C 24,4 C 18,3 C 62 % 1018,0 hPa 0,0 l/m 2 min 0 min 436 W/m 16,1 km/h (3 Bft) 97,87 %
09.08.2023 17:40 22,6 C 23,9 C 18,3 C 62 % 1017,9 hPa 0,0 l/m 0 min 0 min 168 W/m 6,4 km/h (2 Bft) 97,87 %
09.08.2023 17:42 22,6 C 24,4 C 18,3 C 62 % 1017,9 hPa 0,0 l/m 2 min 0 min 430 W/m 6,4 km/h (2 Bft) 97,87 %
09.08.2023 17:44 22,7 C 25,0 C 18,3 C 63 % 1017,9 hPa 0,0 l/m 2 min 0 min 476 W/m 6,4 km/h (2 Bft) 97,87 %
09.08.2023 17:46 22,7 C 24,4 C 18,3 C 63 % 1017,9 hPa 0,0 l/m 2 min 0 min 388 W/m 16,1 km/h (3 Bft) 95,65 %
09.08.2023 17:48 22,6 C 24,4 C 18,3 C 62 % 1017,9 hPa 0,0 l/m 2 min 0 min 474 W/m 16,1 km/h (3 Bft) 97,87 %
09.08.2023 17:50 22,6 C 25,0 C 18,3 C 62 % 1017,9 hPa 0,0 l/m 2 min 0 min 454 W/m 12,9 km/h (3 Bft) 100,00 %
09.08.2023 17:52 22,6 C 25,0 C 18,3 C 62 % 1018,0 hPa 0,0 l/m 2 min 0 min 457 W/m 12,9 km/h (3 Bft) 100,00 %
09.08.2023 17:54 22,6 C 24,4 C 18,3 C 63 % 1018,0 hPa 0,0 l/m 2 min 0 min 452 W/m 9,7 km/h (2 Bft) 100,00 %
09.08.2023 17:56 22,6 C 23,3 C 18,3 C 63 % 1018,1 hPa 0,0 l/m 0 min 0 min 141 W/m 9,7 km/h (2 Bft) 100,00 %
09.08.2023 17:58 22,5 C 22,8 C 17,8 C 63 % 1018,0 hPa 0,0 l/m 0 min 0 min 79 W/m 6,4 km/h (2 Bft) 95,74 %
09.08.2023 18:00 22,4 C 21,7 C 17,8 C 64 % 1018,0 hPa 0,0 l/m 0 min 0 min 90 W/m 6,4 km/h (2 Bft) 100,00 %
09.08.2023 18:02 22,3 C 22,2 C 17,8 C 64 % 1018,0 hPa 0,0 l/m 0 min 0 min 127 W/m 6,4 km/h (2 Bft) 97,87 %
09.08.2023 18:04 22,3 C 21,7 C 17,2 C 64 % 1018,1 hPa 0,0 l/m 0 min 0 min 114 W/m 12,9 km/h (3 Bft) 98,00 %
09.08.2023 18:08 22,2 C 22,2 C 17,2 C 65 % 1018,1 hPa 0,0 l/m 0 min 0 min 152 W/m 12,9 km/h (3 Bft) 100,00 %
09.08.2023 18:10 22,1 C 22,8 C 17,2 C 64 % 1018,1 hPa 0,0 l/m 0 min 0 min 151 W/m 9,7 km/h (2 Bft) 95,65 %
09.08.2023 18:12 22,1 C 22,8 C 17,8 C 65 % 1018,1 hPa 0,0 l/m 2 min 0 min 280 W/m 6,4 km/h (2 Bft) 97,87 %
09.08.2023 18:14 22,1 C 22,8 C 17,8 C 66 % 1018,1 hPa 0,0 l/m 0 min 0 min 165 W/m 12,9 km/h (3 Bft) 97,87 %
09.08.2023 18:16 22,1 C 23,3 C 17,8 C 66 % 1018,1 hPa 0,0 l/m 0 min 0 min 174 W/m 12,9 km/h (3 Bft) 93,62 %
09.08.2023 18:18 22,2 C 23,3 C 17,8 C 66 % 1018,2 hPa 0,0 l/m 2 min 0 min 214 W/m 16,1 km/h (3 Bft) 97,87 %
09.08.2023 18:20 22,2 C 25,0 C 18,3 C 66 % 1018,2 hPa 0,0 l/m 2 min 0 min 352 W/m 9,7 km/h (2 Bft) 97,87 %
09.08.2023 18:22 22,3 C 25,6 C 18,3 C 67 % 1018,1 hPa 0,0 l/m 2 min 0 min 461 W/m 12,9 km/h (3 Bft) 95,74 %
09.08.2023 18:24 22,4 C 25,6 C 18,9 C 67 % 1018,2 hPa 0,0 l/m 2 min 0 min 408 W/m 16,1 km/h (3 Bft) 97,56 %
09.08.2023 18:26 22,5 C 25,0 C 18,9 C 67 % 1018,1 hPa 0,0 l/m 2 min 0 min 409 W/m 16,1 km/h (3 Bft) 97,87 %
09.08.2023 18:28 22,6 C 23,9 C 18,3 C 67 % 1018,1 hPa 0,0 l/m 2 min 0 min 229 W/m 12,9 km/h (3 Bft) 95,74 %
09.08.2023 18:30 22,4 C 23,9 C 18,3 C 66 % 1018,2 hPa 0,0 l/m 2 min 0 min 302 W/m 22,5 km/h (4 Bft) 97,87 %
09.08.2023 18:32 22,4 C 24,4 C 18,3 C 66 % 1018,3 hPa 0,0 l/m 2 min 0 min 400 W/m 16,1 km/h (3 Bft) 97,87 %
09.08.2023 18:34 22,3 C 25,0 C 18,3 C 66 % 1018,2 hPa 0,0 l/m 2 min 0 min 386 W/m 16,1 km/h (3 Bft) 95,83 %
09.08.2023 18:36 22,4 C 25,6 C 18,3 C 67 % 1018,2 hPa 0,0 l/m 2 min 0 min 362 W/m 16,1 km/h (3 Bft) 97,83 %
09.08.2023 18:38 22,4 C 25,6 C 18,3 C 65 % 1018,2 hPa 0,0 l/m 2 min 0 min 358 W/m 16,1 km/h (3 Bft) 97,87 %
09.08.2023 18:40 22,4 C 25,6 C 18,3 C 65 % 1018,3 hPa 0,0 l/m 2 min 0 min 360 W/m 22,5 km/h (4 Bft) 95,74 %
09.08.2023 18:42 22,6 C 26,1 C 18,3 C 65 % 1018,2 hPa 0,0 l/m 2 min 0 min 323 W/m 9,7 km/h (2 Bft) 97,87 %
09.08.2023 18:44 22,6 C 26,7 C 18,3 C 66 % 1018,3 hPa 0,0 l/m 2 min 0 min 366 W/m 9,7 km/h (2 Bft) 95,74 %
09.08.2023 18:46 22,7 C 27,2 C 18,3 C 65 % 1018,2 hPa 0,0 l/m 2 min 0 min 392 W/m 12,9 km/h (3 Bft) 95,74 %
09.08.2023 18:48 22,8 C 27,2 C 18,3 C 65 % 1018,3 hPa 0,0 l/m 2 min 0 min 397 W/m 22,5 km/h (4 Bft) 95,74 %
09.08.2023 18:50 22,8 C 26,7 C 18,3 C 65 % 1018,3 hPa 0,0 l/m 2 min 0 min 394 W/m 16,1 km/h (3 Bft) 100,00 %
09.08.2023 18:52 22,9 C 26,7 C 18,3 C 65 % 1018,3 hPa 0,0 l/m 2 min 0 min 389 W/m 16,1 km/h (3 Bft) 97,87 %
09.08.2023 18:54 22,9 C 26,7 C 18,3 C 65 % 1018,3 hPa 0,0 l/m 2 min 0 min 335 W/m 12,9 km/h (3 Bft) 97,87 %
09.08.2023 18:56 23,0 C 25,0 C 18,3 C 64 % 1018,2 hPa 0,0 l/m 2 min 0 min 214 W/m 16,1 km/h (3 Bft) 100,00 %
09.08.2023 18:58 23,0 C 23,9 C 17,8 C 65 % 1018,3 hPa 0,0 l/m 0 min 0 min 126 W/m 22,5 km/h (4 Bft) 97,87 %
09.08.2023 19:00 22,9 C 23,3 C 17,8 C 64 % 1018,3 hPa 0,0 l/m 0 min 0 min 130 W/m 22,5 km/h (4 Bft) 100,00 %
09.08.2023 19:02 22,8 C 22,8 C 17,8 C 64 % 1018,3 hPa 0,0 l/m 2 min 0 min 253 W/m 12,9 km/h (3 Bft) 100,00 %
09.08.2023 19:04 22,7 C 22,2 C 17,8 C 64 % 1018,3 hPa 0,0 l/m 2 min 0 min 149 W/m 19,3 km/h (3 Bft) 95,12 %
09.08.2023 19:06 22,6 C 22,2 C 17,2 C 64 % 1018,4 hPa 0,0 l/m 0 min 0 min 108 W/m 19,3 km/h (3 Bft) 100,00 %
09.08.2023 19:08 22,5 C 21,7 C 17,2 C 64 % 1018,3 hPa 0,0 l/m 0 min 0 min 115 W/m 16,1 km/h (3 Bft) 96,55 %
09.08.2023 19:10 22,4 C 21,7 C 17,2 C 64 % 1018,4 hPa 0,0 l/m 2 min 0 min 259 W/m 19,3 km/h (3 Bft) 95,74 %
09.08.2023 19:12 22,3 C 21,7 C 17,2 C 65 % 1018,3 hPa 0,0 l/m 2 min 0 min 230 W/m 19,3 km/h (3 Bft) 95,74 %
09.08.2023 19:14 22,3 C 21,7 C 17,2 C 65 % 1018,4 hPa 0,0 l/m 0 min 0 min 130 W/m 12,9 km/h (3 Bft) 97,87 %
09.08.2023 19:16 22,2 C 21,1 C 17,2 C 66 % 1018,4 hPa 0,0 l/m 0 min 0 min 57 W/m 16,1 km/h (3 Bft) 95,74 %
09.08.2023 19:18 22,1 C 21,1 C 17,2 C 66 % 1018,4 hPa 0,0 l/m 0 min 0 min 101 W/m 22,5 km/h (4 Bft) 97,87 %
09.08.2023 19:20 22,1 C 21,1 C 16,7 C 66 % 1018,4 hPa 0,0 l/m 0 min 0 min 76 W/m 12,9 km/h (3 Bft) 95,65 %
09.08.2023 19:22 21,9 C 21,1 C 16,7 C 66 % 1018,4 hPa 0,0 l/m 0 min 0 min 64 W/m 16,1 km/h (3 Bft) 95,74 %
09.08.2023 19:24 21,9 C 21,1 C 16,7 C 66 % 1018,5 hPa 0,0 l/m 0 min 0 min 80 W/m 19,3 km/h (3 Bft) 97,87 %
09.08.2023 19:26 21,8 C 21,1 C 16,7 C 66 % 1018,5 hPa 0,0 l/m 0 min 0 min 103 W/m 16,1 km/h (3 Bft) 97,87 %
09.08.2023 19:28 21,8 C 21,1 C 16,7 C 66 % 1018,5 hPa 0,0 l/m 0 min 0 min 117 W/m 12,9 km/h (3 Bft) 95,74 %
09.08.2023 19:30 21,7 C 21,1 C 16,7 C 66 % 1018,5 hPa 0,0 l/m 0 min 0 min 110 W/m 12,9 km/h (3 Bft) 93,62 %
09.08.2023 19:32 21,7 C 21,1 C 16,7 C 66 % 1018,5 hPa 0,0 l/m 0 min 0 min 97 W/m 19,3 km/h (3 Bft) 97,87 %
09.08.2023 19:34 21,6 C 21,1 C 16,7 C 67 % 1018,5 hPa 0,0 l/m 0 min 0 min 93 W/m 3,2 km/h (1 Bft) 95,65 %
09.08.2023 19:36 21,6 C 21,1 C 16,7 C 67 % 1018,5 hPa 0,0 l/m 0 min 0 min 86 W/m 6,4 km/h (2 Bft) 95,74 %
09.08.2023 19:38 21,5 C 21,1 C 16,7 C 68 % 1018,5 hPa 0,0 l/m 0 min 0 min 83 W/m 12,9 km/h (3 Bft) 97,87 %
09.08.2023 19:40 21,4 C 20,6 C 16,7 C 68 % 1018,5 hPa 0,0 l/m 0 min 0 min 73 W/m 12,9 km/h (3 Bft) 95,74 %
09.08.2023 19:42 21,4 C 20,6 C 16,7 C 67 % 1018,6 hPa 0,0 l/m 0 min 0 min 69 W/m 6,4 km/h (2 Bft) 95,74 %
09.08.2023 19:44 21,3 C 20,6 C 16,7 C 67 % 1018,6 hPa 0,0 l/m 0 min 0 min 61 W/m 12,9 km/h (3 Bft) 95,74 %
09.08.2023 19:46 21,3 C 20,6 C 16,1 C 67 % 1018,7 hPa 0,0 l/m 0 min 0 min 61 W/m 9,7 km/h (2 Bft) 92,31 %
09.08.2023 19:48 21,2 C 20,6 C 16,1 C 67 % 1018,8 hPa 0,0 l/m 0 min 0 min 65 W/m 12,9 km/h (3 Bft) 93,62 %
09.08.2023 19:50 21,2 C 20,6 C 16,1 C 67 % 1018,8 hPa 0,0 l/m 0 min 0 min 66 W/m 19,3 km/h (3 Bft) 95,74 %
09.08.2023 19:52 21,1 C 20,0 C 16,1 C 67 % 1018,8 hPa 0,0 l/m 0 min 0 min 63 W/m 12,9 km/h (3 Bft) 93,48 %
09.08.2023 19:54 21,1 C 20,0 C 16,1 C 67 % 1018,8 hPa 0,0 l/m 0 min 0 min 59 W/m 12,9 km/h (3 Bft) 95,74 %
09.08.2023 19:56 21,1 C 20,0 C 16,1 C 68 % 1018,9 hPa 0,0 l/m 0 min 0 min 50 W/m 12,9 km/h (3 Bft) 95,74 %
09.08.2023 19:58 21,0 C 20,0 C 16,1 C 68 % 1018,8 hPa 0,0 l/m 0 min 0 min 36 W/m 9,7 km/h (2 Bft) 93,48 %
09.08.2023 20:00 20,9 C 20,0 C 16,1 C 69 % 1018,8 hPa 0,0 l/m 0 min 0 min 31 W/m 6,4 km/h (2 Bft) 95,74 %
09.08.2023 20:02 20,9 C 20,0 C 15,6 C 69 % 1018,9 hPa 0,0 l/m 0 min 0 min 28 W/m 9,7 km/h (2 Bft) 97,87 %
09.08.2023 20:04 20,8 C 19,4 C 15,6 C 68 % 1018,9 hPa 0,0 l/m 0 min 0 min 25 W/m 12,9 km/h (3 Bft) 95,35 %
09.08.2023 20:06 20,7 C 19,4 C 15,6 C 69 % 1019,0 hPa 0,0 l/m 0 min 0 min 22 W/m 9,7 km/h (2 Bft) 96,61 %
09.08.2023 20:08 20,7 C 19,4 C 15,6 C 69 % 1019,0 hPa 0,0 l/m 0 min 0 min 19 W/m 9,7 km/h (2 Bft) 94,29 %
09.08.2023 20:10 20,7 C 19,4 C 15,6 C 69 % 1018,9 hPa 0,0 l/m 0 min 0 min 19 W/m 12,9 km/h (3 Bft) 93,62 %
09.08.2023 20:12 20,6 C 19,4 C 15,6 C 69 % 1019,0 hPa 0,0 l/m 0 min 0 min 18 W/m 6,4 km/h (2 Bft) 97,87 %
09.08.2023 20:14 20,5 C 19,4 C 15,6 C 69 % 1018,9 hPa 0,0 l/m 0 min 0 min 19 W/m 9,7 km/h (2 Bft) 95,65 %
09.08.2023 20:16 20,4 C 18,9 C 15,0 C 70 % 1019,0 hPa 0,0 l/m 0 min 0 min 19 W/m 9,7 km/h (2 Bft) 93,62 %
09.08.2023 20:18 20,3 C 18,9 C 15,0 C 70 % 1019,0 hPa 0,0 l/m 0 min 0 min 21 W/m 12,9 km/h (3 Bft) 95,74 %
09.08.2023 20:20 20,3 C 18,9 C 15,0 C 70 % 1019,0 hPa 0,0 l/m 0 min 0 min 24 W/m 6,4 km/h (2 Bft) 93,62 %
09.08.2023 20:22 20,2 C 18,9 C 15,0 C 70 % 1019,0 hPa 0,0 l/m 0 min 0 min 25 W/m 6,4 km/h (2 Bft) 93,62 %
09.08.2023 20:24 20,1 C 18,9 C 15,0 C 70 % 1019,1 hPa 0,0 l/m 0 min 0 min 25 W/m 3,2 km/h (1 Bft) 93,62 %
09.08.2023 20:26 20,1 C 18,9 C 15,0 C 70 % 1019,0 hPa 0,0 l/m 0 min 0 min 26 W/m 9,7 km/h (2 Bft) 95,74 %
09.08.2023 20:28 20,0 C 18,9 C 15,0 C 71 % 1019,1 hPa 0,0 l/m 0 min 0 min 26 W/m 9,7 km/h (2 Bft) 93,48 %
09.08.2023 20:30 20,0 C 18,9 C 15,0 C 71 % 1019,1 hPa 0,0 l/m 0 min 0 min 26 W/m 9,7 km/h (2 Bft) 95,74 %
09.08.2023 20:32 19,9 C 18,9 C 15,0 C 71 % 1019,1 hPa 0,0 l/m 0 min 0 min 25 W/m 6,4 km/h (2 Bft) 95,74 %
09.08.2023 20:34 19,9 C 18,9 C 15,0 C 71 % 1019,2 hPa 0,0 l/m 0 min 0 min 22 W/m 9,7 km/h (2 Bft) 97,87 %
09.08.2023 20:36 19,8 C 18,9 C 14,4 C 71 % 1019,2 hPa 0,0 l/m 0 min 0 min 21 W/m 6,4 km/h (2 Bft) 97,87 %
09.08.2023 20:38 19,8 C 18,9 C 14,4 C 71 % 1019,2 hPa 0,0 l/m 0 min 0 min 20 W/m 9,7 km/h (2 Bft) 98,15 %
09.08.2023 20:40 19,7 C 18,3 C 14,4 C 71 % 1019,1 hPa 0,0 l/m 0 min 0 min 19 W/m 6,4 km/h (2 Bft) 95,74 %
09.08.2023 20:42 19,7 C 18,3 C 14,4 C 72 % 1019,2 hPa 0,0 l/m 0 min 0 min 17 W/m 0,0 km/h (0 Bft) 97,87 %
09.08.2023 20:44 19,6 C 18,3 C 14,4 C 72 % 1019,3 hPa 0,0 l/m 0 min 0 min 15 W/m 6,4 km/h (2 Bft) 95,74 %
09.08.2023 20:46 19,5 C 18,3 C 14,4 C 72 % 1019,3 hPa 0,0 l/m 0 min 0 min 12 W/m 3,2 km/h (1 Bft) 100,00 %
09.08.2023 20:48 19,5 C 18,3 C 14,4 C 73 % 1019,3 hPa 0,0 l/m 0 min 0 min 11 W/m 3,2 km/h (1 Bft) 100,00 %
09.08.2023 20:50 19,4 C 18,3 C 14,4 C 73 % 1019,4 hPa 0,0 l/m 0 min 0 min 11 W/m 6,4 km/h (2 Bft) 100,00 %
09.08.2023 20:52 19,4 C 18,3 C 13,9 C 73 % 1019,4 hPa 0,0 l/m 0 min 0 min 9 W/m 6,4 km/h (2 Bft) 97,87 %
09.08.2023 20:54 19,3 C 17,8 C 13,9 C 72 % 1019,4 hPa 0,0 l/m 0 min 0 min 9 W/m 6,4 km/h (2 Bft) 97,87 %
09.08.2023 20:56 19,3 C 17,8 C 13,9 C 73 % 1019,4 hPa 0,0 l/m 0 min 0 min 8 W/m 3,2 km/h (1 Bft) 100,00 %
09.08.2023 20:58 19,3 C 17,8 C 13,9 C 73 % 1019,4 hPa 0,0 l/m 0 min 0 min 7 W/m 3,2 km/h (1 Bft) 100,00 %
09.08.2023 21:00 19,2 C 17,8 C 13,9 C 73 % 1019,4 hPa 0,0 l/m 0 min 0 min 6 W/m 0,0 km/h (0 Bft) 97,87 %
09.08.2023 21:02 19,2 C 17,8 C 13,9 C 73 % 1019,5 hPa 0,0 l/m 0 min 0 min 5 W/m 3,2 km/h (1 Bft) 100,00 %
09.08.2023 21:04 19,1 C 17,8 C 13,9 C 74 % 1019,5 hPa 0,0 l/m 0 min 0 min 5 W/m 3,2 km/h (1 Bft) 97,83 %
09.08.2023 21:06 19,1 C 17,8 C 13,9 C 74 % 1019,5 hPa 0,0 l/m 0 min 0 min 0 W/m 3,2 km/h (1 Bft) 97,87 %
09.08.2023 21:08 19,0 C 17,8 C 13,9 C 74 % 1019,5 hPa 0,0 l/m 0 min 0 min 0 W/m 6,4 km/h (2 Bft) 100,00 %
09.08.2023 21:10 18,9 C 17,8 C 13,9 C 74 % 1019,5 hPa 0,0 l/m 0 min 0 min 0 W/m 3,2 km/h (1 Bft) 100,00 %
09.08.2023 21:18 18,8 C 17,2 C 13,9 C 75 % 1019,6 hPa 0,0 l/m 0 min 0 min 0 W/m 3,2 km/h (1 Bft) 97,83 %
09.08.2023 21:20 18,7 C 17,2 C 13,9 C 75 % 1019,6 hPa 0,0 l/m 0 min 0 min 0 W/m 0,0 km/h (0 Bft) 93,62 %
09.08.2023 21:22 18,7 C 17,2 C 13,9 C 76 % 1019,7 hPa 0,0 l/m 0 min 0 min 0 W/m 0,0 km/h (0 Bft) 100,00 %
09.08.2023 21:24 18,6 C 17,2 C 13,9 C 76 % 1019,7 hPa 0,0 l/m 0 min 0 min 0 W/m 3,2 km/h (1 Bft) 97,87 %
09.08.2023 21:26 18,6 C 17,2 C 13,9 C 76 % 1019,8 hPa 0,0 l/m 0 min 0 min 0 W/m 6,4 km/h (2 Bft) 100,00 %
09.08.2023 21:28 18,5 C 17,2 C 13,9 C 76 % 1019,7 hPa 0,0 l/m 0 min 0 min 0 W/m 0,0 km/h (0 Bft) 100,00 %
09.08.2023 21:30 18,5 C 17,2 C 13,3 C 76 % 1019,8 hPa 0,0 l/m 0 min 0 min 0 W/m 6,4 km/h (2 Bft) 97,87 %
09.08.2023 21:32 18,4 C 17,2 C 13,3 C 77 % 1019,8 hPa 0,0 l/m 0 min 0 min 0 W/m 6,4 km/h (2 Bft) 100,00 %
09.08.2023 21:34 18,4 C 17,2 C 13,3 C 77 % 1019,8 hPa 0,0 l/m 0 min 0 min 0 W/m 6,4 km/h (2 Bft) 100,00 %
09.08.2023 21:36 18,4 C 17,2 C 13,3 C 77 % 1019,9 hPa 0,0 l/m 0 min 0 min 0 W/m 6,4 km/h (2 Bft) 100,00 %
09.08.2023 21:38 18,3 C 17,2 C 13,3 C 77 % 1019,9 hPa 0,0 l/m 0 min 0 min 0 W/m 3,2 km/h (1 Bft) 100,00 %
09.08.2023 21:40 18,3 C 17,2 C 13,3 C 78 % 1019,9 hPa 0,0 l/m 0 min 0 min 0 W/m 9,7 km/h (2 Bft) 97,87 %
09.08.2023 21:42 18,3 C 17,2 C 13,3 C 78 % 1019,9 hPa 0,0 l/m 0 min 0 min 0 W/m 6,4 km/h (2 Bft) 100,00 %
09.08.2023 21:44 18,2 C 17,2 C 13,3 C 78 % 1019,9 hPa 0,0 l/m 0 min 0 min 0 W/m 6,4 km/h (2 Bft) 100,00 %
09.08.2023 21:46 18,2 C 17,2 C 13,3 C 78 % 1020,0 hPa 0,0 l/m 0 min 0 min 0 W/m 6,4 km/h (2 Bft) 97,87 %
09.08.2023 21:48 18,2 C 17,2 C 13,3 C 78 % 1020,0 hPa 0,0 l/m 0 min 0 min 0 W/m 3,2 km/h (1 Bft) 100,00 %
09.08.2023 21:50 18,2 C 17,2 C 13,3 C 78 % 1020,0 hPa 0,0 l/m 0 min 0 min 0 W/m 9,7 km/h (2 Bft) 94,29 %
09.08.2023 21:52 18,1 C 17,2 C 13,3 C 78 % 1020,0 hPa 0,0 l/m 0 min 0 min 0 W/m 3,2 km/h (1 Bft) 96,00 %
09.08.2023 21:54 18,1 C 17,2 C 13,3 C 78 % 1020,0 hPa 0,0 l/m 0 min 0 min 0 W/m 3,2 km/h (1 Bft) 97,87 %
09.08.2023 21:56 18,1 C 16,7 C 13,3 C 79 % 1020,1 hPa 0,0 l/m 0 min 0 min 0 W/m 0,0 km/h (0 Bft) 97,87 %
09.08.2023 21:58 18,1 C 16,7 C 13,3 C 79 % 1020,1 hPa 0,0 l/m 0 min 0 min 0 W/m 3,2 km/h (1 Bft) 97,87 %
09.08.2023 22:00 18,0 C 16,7 C 12,8 C 79 % 1020,1 hPa 0,0 l/m 0 min 0 min 0 W/m 3,2 km/h (1 Bft) 100,00 %
09.08.2023 22:05 17,9 C 16,7 C 12,8 C 79 % 1020,2 hPa 0,0 l/m 0 min 0 min 0 W/m 3,2 km/h (1 Bft) 99,12 %
09.08.2023 22:10 17,7 C 16,7 C 12,8 C 79 % 1020,1 hPa 0,0 l/m 0 min 0 min 0 W/m 6,4 km/h (2 Bft) 97,37 %
09.08.2023 22:14 17,6 C 16,7 C 12,8 C 80 % 1020,2 hPa 0,0 l/m 0 min 0 min 0 W/m 6,4 km/h (2 Bft) 98,08 %
09.08.2023 22:16 17,6 C 16,1 C 12,8 C 80 % 1020,2 hPa 0,0 l/m 0 min 0 min 0 W/m 6,4 km/h (2 Bft) 94,29 %
09.08.2023 22:20 17,4 C 16,7 C 12,8 C 80 % 1020,3 hPa 0,0 l/m 0 min 0 min 0 W/m 0,0 km/h (0 Bft) 97,43 %
09.08.2023 22:22 17,4 C 16,7 C 12,8 C 80 % 1020,2 hPa 0,0 l/m 0 min 0 min 0 W/m 0,0 km/h (0 Bft) 96,83 %
09.08.2023 22:26 17,3 C 16,1 C 12,8 C 80 % 1020,2 hPa 0,0 l/m 0 min 0 min 0 W/m 6,4 km/h (2 Bft) 100,00 %
09.08.2023 22:28 17,3 C 16,1 C 12,8 C 80 % 1020,3 hPa 0,0 l/m 0 min 0 min 0 W/m 3,2 km/h (1 Bft) 96,15 %
09.08.2023 22:30 17,3 C 16,1 C 12,8 C 80 % 1020,3 hPa 0,0 l/m 0 min 0 min 0 W/m 6,4 km/h (2 Bft) 93,62 %
09.08.2023 22:32 17,2 C 16,1 C 12,8 C 80 % 1020,3 hPa 0,0 l/m 0 min 0 min 0 W/m 6,4 km/h (2 Bft) 97,87 %
09.08.2023 22:34 17,2 C 16,1 C 12,8 C 80 % 1020,3 hPa 0,0 l/m 0 min 0 min 0 W/m 6,4 km/h (2 Bft) 100,00 %
09.08.2023 22:36 17,2 C 16,1 C 12,8 C 80 % 1020,3 hPa 0,0 l/m 0 min 0 min 0 W/m 6,4 km/h (2 Bft) 100,00 %
09.08.2023 22:38 17,1 C 16,1 C 12,8 C 80 % 1020,3 hPa 0,0 l/m 0 min 0 min 0 W/m 3,2 km/h (1 Bft) 100,00 %
09.08.2023 22:40 17,1 C 16,1 C 12,8 C 80 % 1020,3 hPa 0,0 l/m 0 min 0 min 0 W/m 3,2 km/h (1 Bft) 97,83 %
09.08.2023 22:42 17,1 C 16,1 C 12,2 C 80 % 1020,3 hPa 0,0 l/m 0 min 0 min 0 W/m 3,2 km/h (1 Bft) 97,87 %
09.08.2023 22:44 17,1 C 16,1 C 12,2 C 80 % 1020,3 hPa 0,0 l/m 0 min 0 min 0 W/m 3,2 km/h (1 Bft) 93,62 %
09.08.2023 22:46 17,1 C 15,6 C 12,2 C 80 % 1020,3 hPa 0,0 l/m 0 min 0 min 0 W/m 0,0 km/h (0 Bft) 95,74 %
09.08.2023 22:48 17,0 C 15,6 C 12,2 C 81 % 1020,3 hPa 0,0 l/m 0 min 0 min 0 W/m 6,4 km/h (2 Bft) 95,74 %
09.08.2023 22:50 16,9 C 15,6 C 12,2 C 81 % 1020,3 hPa 0,0 l/m 0 min 0 min 0 W/m 3,2 km/h (1 Bft) 95,74 %
09.08.2023 22:52 16,9 C 15,6 C 12,2 C 81 % 1020,4 hPa 0,0 l/m 0 min 0 min 0 W/m 0,0 km/h (0 Bft) 97,87 %
09.08.2023 22:54 16,9 C 15,6 C 11,7 C 81 % 1020,4 hPa 0,0 l/m 0 min 0 min 0 W/m 0,0 km/h (0 Bft) 97,83 %
09.08.2023 22:56 16,8 C 15,6 C 11,7 C 81 % 1020,4 hPa 0,0 l/m 0 min 0 min 0 W/m 0,0 km/h (0 Bft) 95,74 %
09.08.2023 22:58 16,8 C 15,0 C 11,7 C 81 % 1020,4 hPa 0,0 l/m 0 min 0 min 0 W/m 3,2 km/h (1 Bft) 97,87 %
09.08.2023 23:00 16,8 C 15,0 C 11,7 C 82 % 1020,4 hPa 0,0 l/m 0 min 0 min 0 W/m 0,0 km/h (0 Bft) 97,87 %
09.08.2023 23:02 16,7 C 15,0 C 11,7 C 82 % 1020,4 hPa 0,0 l/m 0 min 0 min 0 W/m 3,2 km/h (1 Bft) 97,87 %
09.08.2023 23:05 16,7 C 15,0 C 11,7 C 82 % 1020,5 hPa 3,4 l/m 0 min 0 min 0 W/m 0,0 km/h (0 Bft) 97,17 %
09.08.2023 23:08 16,6 C 15,0 C 11,7 C 82 % 1020,5 hPa 0,0 l/m 0 min 0 min 0 W/m 0,0 km/h (0 Bft) 97,50 %
09.08.2023 23:10 16,6 C 15,0 C 11,7 C 82 % 1020,4 hPa 0,0 l/m 0 min 0 min 0 W/m 0,0 km/h (0 Bft) 97,62 %
09.08.2023 23:12 16,6 C 15,0 C 11,1 C 83 % 1020,5 hPa 0,0 l/m 0 min 0 min 0 W/m 0,0 km/h (0 Bft) 97,87 %
09.08.2023 23:14 16,4 C 14,4 C 11,1 C 83 % 1020,5 hPa 0,0 l/m 0 min 0 min 0 W/m 0,0 km/h (0 Bft) 97,87 %
09.08.2023 23:16 16,4 C 14,4 C 11,1 C 83 % 1020,5 hPa 0,0 l/m 0 min 0 min 0 W/m 0,0 km/h (0 Bft) 95,74 %
09.08.2023 23:18 16,3 C 14,4 C 11,1 C 83 % 1020,6 hPa 0,0 l/m 0 min 0 min 0 W/m 0,0 km/h (0 Bft) 97,87 %
09.08.2023 23:20 16,3 C 14,4 C 11,1 C 83 % 1020,6 hPa 0,0 l/m 0 min 0 min 0 W/m 0,0 km/h (0 Bft) 97,83 %
09.08.2023 23:22 16,2 C 14,4 C 11,1 C 84 % 1020,6 hPa 0,0 l/m 0 min 0 min 0 W/m 0,0 km/h (0 Bft) 97,87 %
09.08.2023 23:24 16,2 C 14,4 C 11,1 C 84 % 1020,7 hPa 0,0 l/m 0 min 0 min 0 W/m 0,0 km/h (0 Bft) 97,87 %
09.08.2023 23:26 16,1 C 14,4 C 11,1 C 84 % 1020,6 hPa 0,0 l/m 0 min 0 min 0 W/m 0,0 km/h (0 Bft) 97,87 %
09.08.2023 23:28 16,1 C 14,4 C 11,1 C 84 % 1020,6 hPa 0,0 l/m 0 min 0 min 0 W/m 0,0 km/h (0 Bft) 97,87 %
09.08.2023 23:30 16,0 C 14,4 C 11,1 C 84 % 1020,6 hPa 0,0 l/m 0 min 0 min 0 W/m 0,0 km/h (0 Bft) 95,74 %
09.08.2023 23:32 15,9 C 14,4 C 11,1 C 84 % 1020,6 hPa 0,0 l/m 0 min 0 min 0 W/m 0,0 km/h (0 Bft) 95,74 %
09.08.2023 23:34 15,9 C 14,4 C 10,6 C 85 % 1020,6 hPa 0,0 l/m 0 min 0 min 0 W/m 0,0 km/h (0 Bft) 95,65 %
09.08.2023 23:36 15,9 C 13,9 C 10,6 C 85 % 1020,7 hPa 0,0 l/m 0 min 0 min 0 W/m 0,0 km/h (0 Bft) 97,87 %
09.08.2023 23:38 15,8 C 13,9 C 10,6 C 85 % 1020,6 hPa 0,0 l/m 0 min 0 min 0 W/m 0,0 km/h (0 Bft) 100,00 %
09.08.2023 23:40 15,8 C 13,9 C 10,6 C 85 % 1020,7 hPa 0,0 l/m 0 min 0 min 0 W/m 0,0 km/h (0 Bft) 100,00 %
09.08.2023 23:42 15,7 C 13,9 C 10,6 C 85 % 1020,7 hPa 0,0 l/m 0 min 0 min 0 W/m 0,0 km/h (0 Bft) 100,00 %
09.08.2023 23:44 15,7 C 13,9 C 10,6 C 86 % 1020,7 hPa 0,0 l/m 0 min 0 min 0 W/m 0,0 km/h (0 Bft) 97,87 %
09.08.2023 23:46 15,6 C 13,9 C 10,6 C 86 % 1020,6 hPa 0,0 l/m 0 min 0 min 0 W/m 0,0 km/h (0 Bft) 97,83 %
09.08.2023 23:48 15,6 C 13,9 C 10,6 C 86 % 1020,6 hPa 0,0 l/m 0 min 0 min 0 W/m 0,0 km/h (0 Bft) 95,74 %
09.08.2023 23:50 15,5 C 13,9 C 10,6 C 86 % 1020,7 hPa 0,0 l/m 0 min 0 min 0 W/m 0,0 km/h (0 Bft) 97,87 %
09.08.2023 23:52 15,4 C 13,9 C 10,0 C 86 % 1020,7 hPa 0,0 l/m 0 min 0 min 0 W/m 0,0 km/h (0 Bft) 97,87 %
09.08.2023 23:54 15,4 C 13,3 C 10,0 C 86 % 1020,7 hPa 0,0 l/m 0 min 0 min 0 W/m 0,0 km/h (0 Bft) 97,87 %
09.08.2023 23:56 15,3 C 13,3 C 10,0 C 86 % 1020,6 hPa 0,0 l/m 0 min 0 min 0 W/m 0,0 km/h (0 Bft) 97,87 %
09.08.2023 23:58 15,2 C 13,3 C 10,0 C 87 % 1020,6 hPa 0,0 l/m 0 min 0 min 0 W/m 0,0 km/h (0 Bft) 95,65 %
_ Min-Zeit 06:54 03:04 03:04 15:30 01:46 - - - - 03:28 02:58
Minimum _ 13,6 C 12,8 C 9,4 C 61 % 1012,1 hPa - - - - 0,0 km/h (0 Bft) 66,67 %
_ Max-Zeit 17:10 15:16 17:10 04:20 23:24 23:05 12:08 04:05 15:26 02:02 00:02
Maximum _ 23,1 C 27,2 C 18,9 C 99 % 1020,7 hPa 3,4 l/m 4 min 5 min 977 W/m 29,0 km/h
SO (5 Bft)
100,00 %
Durchschnitt _ 17,5 C 17,7 C 13,2 C 84 % 1016,5 hPa #6,8 l/m #6:21 h #1:58 h 310 W/m 6,7 km/h (2 Bft) 97,25 %
© 2023 W. Hausmann